<?xml version="1.0" encoding="UTF-8" standalone="no" ?>
<gpx xmlns="http://www.topografix.com/GPX/1/1" xmlns:xsi="http://www.w3.org/2001/XMLSchema-instance" xsi:schemaLocation="http://www.topografix.com/GPX/1/1 http://www.topografix.com/GPX/1/1/gpx.xsd" version="1.1" creator="VisuGPX - https://www.visugpx.com">
  <metadata>
    <name>randonnée</name>
    <desc><![CDATA[dure dure le démarrage avec la puce
]]></desc>
  </metadata>
  <trk>
    <name><![CDATA[Tracé actuel: 15 JAN 2020 13:12]]></name>
    <trkseg>
      <trkpt lat="49.63482" lon="4.97868">
        <ele>178.94</ele>
        <time>2020-01-15T12:12:33Z</time>
      </trkpt>
      <trkpt lat="49.63492" lon="4.97846">
        <ele>171.73</ele>
        <time>2020-01-15T12:12:54Z</time>
      </trkpt>
      <trkpt lat="49.63502" lon="4.9783">
        <ele>168.85</ele>
        <time>2020-01-15T12:13:10Z</time>
      </trkpt>
      <trkpt lat="49.63528" lon="4.97813">
        <ele>170.77</ele>
        <time>2020-01-15T12:13:29Z</time>
      </trkpt>
      <trkpt lat="49.6354" lon="4.97798">
        <ele>173.17</ele>
        <time>2020-01-15T12:13:42Z</time>
      </trkpt>
      <trkpt lat="49.63553" lon="4.97782">
        <ele>174.14</ele>
        <time>2020-01-15T12:13:58Z</time>
      </trkpt>
      <trkpt lat="49.63556" lon="4.97768">
        <ele>171.73</ele>
        <time>2020-01-15T12:14:11Z</time>
      </trkpt>
      <trkpt lat="49.63559" lon="4.97745">
        <ele>167.89</ele>
        <time>2020-01-15T12:14:28Z</time>
      </trkpt>
      <trkpt lat="49.6357" lon="4.97727">
        <ele>163.08</ele>
        <time>2020-01-15T12:14:46Z</time>
      </trkpt>
      <trkpt lat="49.63577" lon="4.97707">
        <ele>160.68</ele>
        <time>2020-01-15T12:15:00Z</time>
      </trkpt>
      <trkpt lat="49.63578" lon="4.97684">
        <ele>157.31</ele>
        <time>2020-01-15T12:15:13Z</time>
      </trkpt>
      <trkpt lat="49.63585" lon="4.97675">
        <ele>156.83</ele>
        <time>2020-01-15T12:15:27Z</time>
      </trkpt>
      <trkpt lat="49.63597" lon="4.97673">
        <ele>165.48</ele>
        <time>2020-01-15T12:15:47Z</time>
      </trkpt>
      <trkpt lat="49.63609" lon="4.9767">
        <ele>171.73</ele>
        <time>2020-01-15T12:16:07Z</time>
      </trkpt>
      <trkpt lat="49.63623" lon="4.97667">
        <ele>176.54</ele>
        <time>2020-01-15T12:16:22Z</time>
      </trkpt>
      <trkpt lat="49.63624" lon="4.97667">
        <ele>176.06</ele>
        <time>2020-01-15T12:16:23Z</time>
      </trkpt>
      <trkpt lat="49.63627" lon="4.97671">
        <ele>175.58</ele>
        <time>2020-01-15T12:16:39Z</time>
      </trkpt>
      <trkpt lat="49.63629" lon="4.97685">
        <ele>164.52</ele>
        <time>2020-01-15T12:16:53Z</time>
      </trkpt>
      <trkpt lat="49.63635" lon="4.97699">
        <ele>158.27</ele>
        <time>2020-01-15T12:17:08Z</time>
      </trkpt>
      <trkpt lat="49.63647" lon="4.97713">
        <ele>157.31</ele>
        <time>2020-01-15T12:17:24Z</time>
      </trkpt>
      <trkpt lat="49.63659" lon="4.97722">
        <ele>156.35</ele>
        <time>2020-01-15T12:17:38Z</time>
      </trkpt>
      <trkpt lat="49.63674" lon="4.97733">
        <ele>158.75</ele>
        <time>2020-01-15T12:17:55Z</time>
      </trkpt>
      <trkpt lat="49.63686" lon="4.97742">
        <ele>156.83</ele>
        <time>2020-01-15T12:18:11Z</time>
      </trkpt>
      <trkpt lat="49.63702" lon="4.97751">
        <ele>156.35</ele>
        <time>2020-01-15T12:18:29Z</time>
      </trkpt>
      <trkpt lat="49.6371" lon="4.97763">
        <ele>154.91</ele>
        <time>2020-01-15T12:18:49Z</time>
      </trkpt>
      <trkpt lat="49.63736" lon="4.9778">
        <ele>156.83</ele>
        <time>2020-01-15T12:19:10Z</time>
      </trkpt>
      <trkpt lat="49.63747" lon="4.97791">
        <ele>155.39</ele>
        <time>2020-01-15T12:19:26Z</time>
      </trkpt>
      <trkpt lat="49.6376" lon="4.97807">
        <ele>153.95</ele>
        <time>2020-01-15T12:19:42Z</time>
      </trkpt>
      <trkpt lat="49.63762" lon="4.97811">
        <ele>149.14</ele>
        <time>2020-01-15T12:19:59Z</time>
      </trkpt>
      <trkpt lat="49.63773" lon="4.97823">
        <ele>147.22</ele>
        <time>2020-01-15T12:20:16Z</time>
      </trkpt>
      <trkpt lat="49.63786" lon="4.97839">
        <ele>141.45</ele>
        <time>2020-01-15T12:20:34Z</time>
      </trkpt>
      <trkpt lat="49.63805" lon="4.97855">
        <ele>141.93</ele>
        <time>2020-01-15T12:20:51Z</time>
      </trkpt>
      <trkpt lat="49.63815" lon="4.97859">
        <ele>143.85</ele>
        <time>2020-01-15T12:21:09Z</time>
      </trkpt>
      <trkpt lat="49.63832" lon="4.97872">
        <ele>147.7</ele>
        <time>2020-01-15T12:21:25Z</time>
      </trkpt>
      <trkpt lat="49.63843" lon="4.97881">
        <ele>149.14</ele>
        <time>2020-01-15T12:21:38Z</time>
      </trkpt>
      <trkpt lat="49.63845" lon="4.97883">
        <ele>149.62</ele>
        <time>2020-01-15T12:21:53Z</time>
      </trkpt>
      <trkpt lat="49.63862" lon="4.97896">
        <ele>149.14</ele>
        <time>2020-01-15T12:22:10Z</time>
      </trkpt>
      <trkpt lat="49.6388" lon="4.97908">
        <ele>149.14</ele>
        <time>2020-01-15T12:22:29Z</time>
      </trkpt>
      <trkpt lat="49.63898" lon="4.97924">
        <ele>152.51</ele>
        <time>2020-01-15T12:22:46Z</time>
      </trkpt>
      <trkpt lat="49.63915" lon="4.97938">
        <ele>154.43</ele>
        <time>2020-01-15T12:23:05Z</time>
      </trkpt>
      <trkpt lat="49.63936" lon="4.97952">
        <ele>159.72</ele>
        <time>2020-01-15T12:23:21Z</time>
      </trkpt>
      <trkpt lat="49.63954" lon="4.97963">
        <ele>164.04</ele>
        <time>2020-01-15T12:23:38Z</time>
      </trkpt>
      <trkpt lat="49.6397" lon="4.97978">
        <ele>166.93</ele>
        <time>2020-01-15T12:23:54Z</time>
      </trkpt>
      <trkpt lat="49.63989" lon="4.97995">
        <ele>169.33</ele>
        <time>2020-01-15T12:24:12Z</time>
      </trkpt>
      <trkpt lat="49.64" lon="4.98002">
        <ele>170.29</ele>
        <time>2020-01-15T12:24:30Z</time>
      </trkpt>
      <trkpt lat="49.64014" lon="4.98017">
        <ele>167.89</ele>
        <time>2020-01-15T12:24:49Z</time>
      </trkpt>
      <trkpt lat="49.64028" lon="4.98035">
        <ele>165.96</ele>
        <time>2020-01-15T12:25:05Z</time>
      </trkpt>
      <trkpt lat="49.64042" lon="4.98047">
        <ele>167.41</ele>
        <time>2020-01-15T12:25:21Z</time>
      </trkpt>
      <trkpt lat="49.64056" lon="4.9806">
        <ele>167.41</ele>
        <time>2020-01-15T12:25:38Z</time>
      </trkpt>
      <trkpt lat="49.64069" lon="4.98077">
        <ele>165.48</ele>
        <time>2020-01-15T12:25:55Z</time>
      </trkpt>
      <trkpt lat="49.64087" lon="4.98091">
        <ele>166.45</ele>
        <time>2020-01-15T12:26:13Z</time>
      </trkpt>
      <trkpt lat="49.641" lon="4.98101">
        <ele>167.89</ele>
        <time>2020-01-15T12:26:27Z</time>
      </trkpt>
      <trkpt lat="49.64101" lon="4.98102">
        <ele>167.89</ele>
        <time>2020-01-15T12:26:28Z</time>
      </trkpt>
      <trkpt lat="49.64119" lon="4.98117">
        <ele>168.85</ele>
        <time>2020-01-15T12:26:46Z</time>
      </trkpt>
      <trkpt lat="49.64128" lon="4.98126">
        <ele>166.45</ele>
        <time>2020-01-15T12:27:03Z</time>
      </trkpt>
      <trkpt lat="49.64145" lon="4.98146">
        <ele>166.45</ele>
        <time>2020-01-15T12:27:22Z</time>
      </trkpt>
      <trkpt lat="49.64155" lon="4.98159">
        <ele>163.56</ele>
        <time>2020-01-15T12:27:41Z</time>
      </trkpt>
      <trkpt lat="49.6417" lon="4.98174">
        <ele>164.04</ele>
        <time>2020-01-15T12:27:58Z</time>
      </trkpt>
      <trkpt lat="49.64188" lon="4.98185">
        <ele>166.45</ele>
        <time>2020-01-15T12:28:14Z</time>
      </trkpt>
      <trkpt lat="49.64189" lon="4.98186">
        <ele>166.45</ele>
        <time>2020-01-15T12:28:15Z</time>
      </trkpt>
      <trkpt lat="49.64203" lon="4.98202">
        <ele>165</ele>
        <time>2020-01-15T12:28:32Z</time>
      </trkpt>
      <trkpt lat="49.64212" lon="4.98216">
        <ele>162.12</ele>
        <time>2020-01-15T12:28:49Z</time>
      </trkpt>
      <trkpt lat="49.64211" lon="4.98216">
        <ele>158.75</ele>
        <time>2020-01-15T12:29:03Z</time>
      </trkpt>
      <trkpt lat="49.64212" lon="4.98218">
        <ele>155.39</ele>
        <time>2020-01-15T12:29:21Z</time>
      </trkpt>
      <trkpt lat="49.64226" lon="4.98233">
        <ele>154.91</ele>
        <time>2020-01-15T12:29:38Z</time>
      </trkpt>
      <trkpt lat="49.64238" lon="4.98245">
        <ele>155.39</ele>
        <time>2020-01-15T12:29:54Z</time>
      </trkpt>
      <trkpt lat="49.64247" lon="4.98253">
        <ele>154.43</ele>
        <time>2020-01-15T12:30:11Z</time>
      </trkpt>
      <trkpt lat="49.64262" lon="4.9827">
        <ele>157.79</ele>
        <time>2020-01-15T12:30:31Z</time>
      </trkpt>
      <trkpt lat="49.64283" lon="4.98284">
        <ele>161.64</ele>
        <time>2020-01-15T12:30:49Z</time>
      </trkpt>
      <trkpt lat="49.64307" lon="4.98296">
        <ele>167.41</ele>
        <time>2020-01-15T12:31:08Z</time>
      </trkpt>
      <trkpt lat="49.64329" lon="4.9831">
        <ele>171.25</ele>
        <time>2020-01-15T12:31:23Z</time>
      </trkpt>
      <trkpt lat="49.64353" lon="4.98333">
        <ele>175.1</ele>
        <time>2020-01-15T12:31:44Z</time>
      </trkpt>
      <trkpt lat="49.64366" lon="4.98346">
        <ele>172.21</ele>
        <time>2020-01-15T12:32:01Z</time>
      </trkpt>
      <trkpt lat="49.64378" lon="4.98356">
        <ele>172.21</ele>
        <time>2020-01-15T12:32:16Z</time>
      </trkpt>
      <trkpt lat="49.64388" lon="4.9836">
        <ele>173.66</ele>
        <time>2020-01-15T12:32:31Z</time>
      </trkpt>
      <trkpt lat="49.64402" lon="4.98365">
        <ele>176.06</ele>
        <time>2020-01-15T12:32:45Z</time>
      </trkpt>
      <trkpt lat="49.64408" lon="4.98371">
        <ele>173.66</ele>
        <time>2020-01-15T12:33:08Z</time>
      </trkpt>
      <trkpt lat="49.64423" lon="4.98387">
        <ele>171.25</ele>
        <time>2020-01-15T12:33:25Z</time>
      </trkpt>
      <trkpt lat="49.64429" lon="4.98394">
        <ele>167.89</ele>
        <time>2020-01-15T12:33:42Z</time>
      </trkpt>
      <trkpt lat="49.64428" lon="4.98395">
        <ele>165</ele>
        <time>2020-01-15T12:34:03Z</time>
      </trkpt>
      <trkpt lat="49.64442" lon="4.984">
        <ele>161.64</ele>
        <time>2020-01-15T12:34:19Z</time>
      </trkpt>
      <trkpt lat="49.64452" lon="4.98407">
        <ele>162.12</ele>
        <time>2020-01-15T12:34:36Z</time>
      </trkpt>
      <trkpt lat="49.64471" lon="4.98419">
        <ele>161.64</ele>
        <time>2020-01-15T12:34:55Z</time>
      </trkpt>
      <trkpt lat="49.64487" lon="4.98432">
        <ele>163.56</ele>
        <time>2020-01-15T12:35:12Z</time>
      </trkpt>
      <trkpt lat="49.64498" lon="4.98442">
        <ele>164.52</ele>
        <time>2020-01-15T12:35:28Z</time>
      </trkpt>
      <trkpt lat="49.64517" lon="4.98453">
        <ele>165.96</ele>
        <time>2020-01-15T12:35:44Z</time>
      </trkpt>
      <trkpt lat="49.64533" lon="4.98462">
        <ele>165.48</ele>
        <time>2020-01-15T12:36:03Z</time>
      </trkpt>
      <trkpt lat="49.64549" lon="4.9847">
        <ele>164.52</ele>
        <time>2020-01-15T12:36:21Z</time>
      </trkpt>
      <trkpt lat="49.64564" lon="4.98481">
        <ele>162.6</ele>
        <time>2020-01-15T12:36:42Z</time>
      </trkpt>
      <trkpt lat="49.64577" lon="4.98487">
        <ele>164.04</ele>
        <time>2020-01-15T12:37:00Z</time>
      </trkpt>
      <trkpt lat="49.64603" lon="4.98499">
        <ele>168.85</ele>
        <time>2020-01-15T12:37:18Z</time>
      </trkpt>
      <trkpt lat="49.64603" lon="4.98496">
        <ele>165</ele>
        <time>2020-01-15T12:37:35Z</time>
      </trkpt>
      <trkpt lat="49.64617" lon="4.98502">
        <ele>164.52</ele>
        <time>2020-01-15T12:37:52Z</time>
      </trkpt>
      <trkpt lat="49.64624" lon="4.98505">
        <ele>164.52</ele>
        <time>2020-01-15T12:38:06Z</time>
      </trkpt>
      <trkpt lat="49.64628" lon="4.98508">
        <ele>161.64</ele>
        <time>2020-01-15T12:38:20Z</time>
      </trkpt>
      <trkpt lat="49.64635" lon="4.98513">
        <ele>159.72</ele>
        <time>2020-01-15T12:38:37Z</time>
      </trkpt>
      <trkpt lat="49.64645" lon="4.9852">
        <ele>158.27</ele>
        <time>2020-01-15T12:38:52Z</time>
      </trkpt>
      <trkpt lat="49.64654" lon="4.98527">
        <ele>157.31</ele>
        <time>2020-01-15T12:39:13Z</time>
      </trkpt>
      <trkpt lat="49.64677" lon="4.9854">
        <ele>158.27</ele>
        <time>2020-01-15T12:39:34Z</time>
      </trkpt>
      <trkpt lat="49.64677" lon="4.9854">
        <ele>158.27</ele>
        <time>2020-01-15T12:39:51Z</time>
      </trkpt>
      <trkpt lat="49.64676" lon="4.98539">
        <ele>156.35</ele>
        <time>2020-01-15T12:40:11Z</time>
      </trkpt>
      <trkpt lat="49.64677" lon="4.9854">
        <ele>154.91</ele>
        <time>2020-01-15T12:40:32Z</time>
      </trkpt>
      <trkpt lat="49.64693" lon="4.98551">
        <ele>154.43</ele>
        <time>2020-01-15T12:40:50Z</time>
      </trkpt>
      <trkpt lat="49.6471" lon="4.98561">
        <ele>153.95</ele>
        <time>2020-01-15T12:41:08Z</time>
      </trkpt>
      <trkpt lat="49.64724" lon="4.98569">
        <ele>151.06</ele>
        <time>2020-01-15T12:41:24Z</time>
      </trkpt>
      <trkpt lat="49.64734" lon="4.98575">
        <ele>149.14</ele>
        <time>2020-01-15T12:41:42Z</time>
      </trkpt>
      <trkpt lat="49.6475" lon="4.98584">
        <ele>148.18</ele>
        <time>2020-01-15T12:41:59Z</time>
      </trkpt>
      <trkpt lat="49.6476" lon="4.98589">
        <ele>146.74</ele>
        <time>2020-01-15T12:42:20Z</time>
      </trkpt>
      <trkpt lat="49.64772" lon="4.986">
        <ele>143.85</ele>
        <time>2020-01-15T12:42:39Z</time>
      </trkpt>
      <trkpt lat="49.64789" lon="4.98606">
        <ele>146.74</ele>
        <time>2020-01-15T12:42:53Z</time>
      </trkpt>
      <trkpt lat="49.64798" lon="4.98607">
        <ele>149.62</ele>
        <time>2020-01-15T12:42:59Z</time>
      </trkpt>
      <trkpt lat="49.64809" lon="4.98613">
        <ele>151.54</ele>
        <time>2020-01-15T12:43:08Z</time>
      </trkpt>
      <trkpt lat="49.64827" lon="4.98623">
        <ele>151.54</ele>
        <time>2020-01-15T12:43:26Z</time>
      </trkpt>
      <trkpt lat="49.64846" lon="4.98633">
        <ele>151.06</ele>
        <time>2020-01-15T12:43:44Z</time>
      </trkpt>
      <trkpt lat="49.64862" lon="4.98643">
        <ele>152.03</ele>
        <time>2020-01-15T12:44:03Z</time>
      </trkpt>
      <trkpt lat="49.64873" lon="4.98654">
        <ele>152.51</ele>
        <time>2020-01-15T12:44:18Z</time>
      </trkpt>
      <trkpt lat="49.64889" lon="4.98665">
        <ele>150.58</ele>
        <time>2020-01-15T12:44:37Z</time>
      </trkpt>
      <trkpt lat="49.64907" lon="4.98681">
        <ele>149.62</ele>
        <time>2020-01-15T12:44:57Z</time>
      </trkpt>
      <trkpt lat="49.6491" lon="4.98683">
        <ele>149.14</ele>
        <time>2020-01-15T12:45:00Z</time>
      </trkpt>
      <trkpt lat="49.64921" lon="4.98684">
        <ele>150.58</ele>
        <time>2020-01-15T12:45:08Z</time>
      </trkpt>
      <trkpt lat="49.6494" lon="4.98697">
        <ele>152.99</ele>
        <time>2020-01-15T12:45:27Z</time>
      </trkpt>
      <trkpt lat="49.64954" lon="4.98711">
        <ele>150.58</ele>
        <time>2020-01-15T12:45:44Z</time>
      </trkpt>
      <trkpt lat="49.64967" lon="4.98723">
        <ele>151.06</ele>
        <time>2020-01-15T12:45:58Z</time>
      </trkpt>
      <trkpt lat="49.64986" lon="4.98741">
        <ele>150.1</ele>
        <time>2020-01-15T12:46:18Z</time>
      </trkpt>
      <trkpt lat="49.64999" lon="4.98755">
        <ele>148.66</ele>
        <time>2020-01-15T12:46:34Z</time>
      </trkpt>
      <trkpt lat="49.65014" lon="4.98768">
        <ele>147.7</ele>
        <time>2020-01-15T12:46:50Z</time>
      </trkpt>
      <trkpt lat="49.65026" lon="4.98781">
        <ele>146.26</ele>
        <time>2020-01-15T12:47:07Z</time>
      </trkpt>
      <trkpt lat="49.65044" lon="4.98798">
        <ele>142.89</ele>
        <time>2020-01-15T12:47:26Z</time>
      </trkpt>
      <trkpt lat="49.6505" lon="4.98799">
        <ele>146.74</ele>
        <time>2020-01-15T12:47:41Z</time>
      </trkpt>
      <trkpt lat="49.65062" lon="4.98814">
        <ele>145.3</ele>
        <time>2020-01-15T12:47:58Z</time>
      </trkpt>
      <trkpt lat="49.65074" lon="4.98825">
        <ele>144.34</ele>
        <time>2020-01-15T12:48:12Z</time>
      </trkpt>
      <trkpt lat="49.65089" lon="4.98839">
        <ele>145.3</ele>
        <time>2020-01-15T12:48:28Z</time>
      </trkpt>
      <trkpt lat="49.65105" lon="4.98856">
        <ele>142.89</ele>
        <time>2020-01-15T12:48:47Z</time>
      </trkpt>
      <trkpt lat="49.6512" lon="4.98875">
        <ele>141.93</ele>
        <time>2020-01-15T12:49:07Z</time>
      </trkpt>
      <trkpt lat="49.65136" lon="4.98889">
        <ele>142.89</ele>
        <time>2020-01-15T12:49:27Z</time>
      </trkpt>
      <trkpt lat="49.65153" lon="4.98903">
        <ele>143.85</ele>
        <time>2020-01-15T12:49:44Z</time>
      </trkpt>
      <trkpt lat="49.65171" lon="4.98919">
        <ele>145.78</ele>
        <time>2020-01-15T12:50:03Z</time>
      </trkpt>
      <trkpt lat="49.6519" lon="4.98936">
        <ele>146.74</ele>
        <time>2020-01-15T12:50:23Z</time>
      </trkpt>
      <trkpt lat="49.65206" lon="4.98954">
        <ele>144.82</ele>
        <time>2020-01-15T12:50:43Z</time>
      </trkpt>
      <trkpt lat="49.65221" lon="4.98964">
        <ele>145.3</ele>
        <time>2020-01-15T12:50:59Z</time>
      </trkpt>
      <trkpt lat="49.65241" lon="4.98978">
        <ele>149.62</ele>
        <time>2020-01-15T12:51:18Z</time>
      </trkpt>
      <trkpt lat="49.65251" lon="4.98986">
        <ele>151.06</ele>
        <time>2020-01-15T12:51:34Z</time>
      </trkpt>
      <trkpt lat="49.65258" lon="4.98993">
        <ele>150.58</ele>
        <time>2020-01-15T12:51:50Z</time>
      </trkpt>
      <trkpt lat="49.65271" lon="4.99001">
        <ele>153.95</ele>
        <time>2020-01-15T12:52:06Z</time>
      </trkpt>
      <trkpt lat="49.6528" lon="4.99008">
        <ele>152.99</ele>
        <time>2020-01-15T12:52:23Z</time>
      </trkpt>
      <trkpt lat="49.65296" lon="4.99025">
        <ele>152.99</ele>
        <time>2020-01-15T12:52:41Z</time>
      </trkpt>
      <trkpt lat="49.65314" lon="4.9904">
        <ele>155.87</ele>
        <time>2020-01-15T12:53:01Z</time>
      </trkpt>
      <trkpt lat="49.65322" lon="4.99066">
        <ele>153.47</ele>
        <time>2020-01-15T12:53:19Z</time>
      </trkpt>
      <trkpt lat="49.65325" lon="4.99072">
        <ele>153.47</ele>
        <time>2020-01-15T12:53:36Z</time>
      </trkpt>
      <trkpt lat="49.6533" lon="4.99099">
        <ele>149.62</ele>
        <time>2020-01-15T12:53:53Z</time>
      </trkpt>
      <trkpt lat="49.65341" lon="4.99124">
        <ele>149.62</ele>
        <time>2020-01-15T12:54:12Z</time>
      </trkpt>
      <trkpt lat="49.65344" lon="4.99131">
        <ele>151.06</ele>
        <time>2020-01-15T12:54:17Z</time>
      </trkpt>
      <trkpt lat="49.65364" lon="4.99164">
        <ele>150.58</ele>
        <time>2020-01-15T12:54:41Z</time>
      </trkpt>
      <trkpt lat="49.65369" lon="4.99182">
        <ele>148.66</ele>
        <time>2020-01-15T12:54:57Z</time>
      </trkpt>
      <trkpt lat="49.6537" lon="4.99186">
        <ele>148.18</ele>
        <time>2020-01-15T12:55:13Z</time>
      </trkpt>
      <trkpt lat="49.65372" lon="4.99188">
        <ele>148.66</ele>
        <time>2020-01-15T12:55:15Z</time>
      </trkpt>
      <trkpt lat="49.65384" lon="4.99194">
        <ele>148.18</ele>
        <time>2020-01-15T12:55:32Z</time>
      </trkpt>
      <trkpt lat="49.65388" lon="4.99197">
        <ele>148.66</ele>
        <time>2020-01-15T12:55:37Z</time>
      </trkpt>
      <trkpt lat="49.65403" lon="4.99217">
        <ele>147.7</ele>
        <time>2020-01-15T12:55:55Z</time>
      </trkpt>
      <trkpt lat="49.6541" lon="4.9923">
        <ele>147.22</ele>
        <time>2020-01-15T12:56:11Z</time>
      </trkpt>
      <trkpt lat="49.65421" lon="4.99248">
        <ele>147.22</ele>
        <time>2020-01-15T12:56:27Z</time>
      </trkpt>
      <trkpt lat="49.65436" lon="4.99264">
        <ele>144.82</ele>
        <time>2020-01-15T12:56:45Z</time>
      </trkpt>
      <trkpt lat="49.65443" lon="4.99275">
        <ele>144.34</ele>
        <time>2020-01-15T12:57:00Z</time>
      </trkpt>
      <trkpt lat="49.65452" lon="4.99284">
        <ele>145.3</ele>
        <time>2020-01-15T12:57:13Z</time>
      </trkpt>
      <trkpt lat="49.65455" lon="4.99286">
        <ele>145.3</ele>
        <time>2020-01-15T12:57:16Z</time>
      </trkpt>
      <trkpt lat="49.6547" lon="4.99268">
        <ele>148.18</ele>
        <time>2020-01-15T12:57:34Z</time>
      </trkpt>
      <trkpt lat="49.65478" lon="4.99243">
        <ele>150.1</ele>
        <time>2020-01-15T12:57:51Z</time>
      </trkpt>
      <trkpt lat="49.65484" lon="4.9921">
        <ele>153.47</ele>
        <time>2020-01-15T12:58:11Z</time>
      </trkpt>
      <trkpt lat="49.65496" lon="4.992">
        <ele>152.51</ele>
        <time>2020-01-15T12:58:27Z</time>
      </trkpt>
      <trkpt lat="49.65501" lon="4.99203">
        <ele>151.54</ele>
        <time>2020-01-15T12:58:35Z</time>
      </trkpt>
      <trkpt lat="49.65519" lon="4.99211">
        <ele>148.66</ele>
        <time>2020-01-15T12:58:52Z</time>
      </trkpt>
      <trkpt lat="49.65537" lon="4.99222">
        <ele>146.26</ele>
        <time>2020-01-15T12:59:10Z</time>
      </trkpt>
      <trkpt lat="49.65551" lon="4.99235">
        <ele>144.82</ele>
        <time>2020-01-15T12:59:25Z</time>
      </trkpt>
      <trkpt lat="49.65562" lon="4.99247">
        <ele>143.85</ele>
        <time>2020-01-15T12:59:37Z</time>
      </trkpt>
      <trkpt lat="49.65572" lon="4.99234">
        <ele>143.85</ele>
        <time>2020-01-15T12:59:53Z</time>
      </trkpt>
      <trkpt lat="49.6558" lon="4.99218">
        <ele>144.34</ele>
        <time>2020-01-15T13:00:07Z</time>
      </trkpt>
      <trkpt lat="49.65597" lon="4.9919">
        <ele>145.78</ele>
        <time>2020-01-15T13:00:28Z</time>
      </trkpt>
      <trkpt lat="49.65612" lon="4.99165">
        <ele>144.34</ele>
        <time>2020-01-15T13:00:47Z</time>
      </trkpt>
      <trkpt lat="49.65622" lon="4.9915">
        <ele>144.34</ele>
        <time>2020-01-15T13:01:03Z</time>
      </trkpt>
      <trkpt lat="49.65637" lon="4.99125">
        <ele>144.82</ele>
        <time>2020-01-15T13:01:23Z</time>
      </trkpt>
      <trkpt lat="49.65651" lon="4.99099">
        <ele>146.26</ele>
        <time>2020-01-15T13:01:43Z</time>
      </trkpt>
      <trkpt lat="49.65667" lon="4.99075">
        <ele>145.3</ele>
        <time>2020-01-15T13:02:02Z</time>
      </trkpt>
      <trkpt lat="49.65677" lon="4.9906">
        <ele>145.3</ele>
        <time>2020-01-15T13:02:20Z</time>
      </trkpt>
      <trkpt lat="49.65687" lon="4.99043">
        <ele>146.26</ele>
        <time>2020-01-15T13:02:36Z</time>
      </trkpt>
      <trkpt lat="49.657" lon="4.99023">
        <ele>145.3</ele>
        <time>2020-01-15T13:02:53Z</time>
      </trkpt>
      <trkpt lat="49.65713" lon="4.99002">
        <ele>147.22</ele>
        <time>2020-01-15T13:03:10Z</time>
      </trkpt>
      <trkpt lat="49.65728" lon="4.98973">
        <ele>149.62</ele>
        <time>2020-01-15T13:03:31Z</time>
      </trkpt>
      <trkpt lat="49.65741" lon="4.98949">
        <ele>150.58</ele>
        <time>2020-01-15T13:03:51Z</time>
      </trkpt>
      <trkpt lat="49.65744" lon="4.98944">
        <ele>151.54</ele>
        <time>2020-01-15T13:04:12Z</time>
      </trkpt>
      <trkpt lat="49.65749" lon="4.98933">
        <ele>151.54</ele>
        <time>2020-01-15T13:04:30Z</time>
      </trkpt>
      <trkpt lat="49.65753" lon="4.98927">
        <ele>151.06</ele>
        <time>2020-01-15T13:04:50Z</time>
      </trkpt>
      <trkpt lat="49.65755" lon="4.98925">
        <ele>149.62</ele>
        <time>2020-01-15T13:05:13Z</time>
      </trkpt>
      <trkpt lat="49.65769" lon="4.989">
        <ele>150.1</ele>
        <time>2020-01-15T13:05:33Z</time>
      </trkpt>
      <trkpt lat="49.65772" lon="4.98892">
        <ele>150.1</ele>
        <time>2020-01-15T13:05:49Z</time>
      </trkpt>
      <trkpt lat="49.65774" lon="4.98888">
        <ele>150.1</ele>
        <time>2020-01-15T13:06:06Z</time>
      </trkpt>
      <trkpt lat="49.65783" lon="4.98873">
        <ele>150.1</ele>
        <time>2020-01-15T13:06:23Z</time>
      </trkpt>
      <trkpt lat="49.65799" lon="4.98845">
        <ele>149.14</ele>
        <time>2020-01-15T13:06:45Z</time>
      </trkpt>
      <trkpt lat="49.65811" lon="4.98822">
        <ele>146.74</ele>
        <time>2020-01-15T13:07:04Z</time>
      </trkpt>
      <trkpt lat="49.6582" lon="4.98804">
        <ele>145.78</ele>
        <time>2020-01-15T13:07:22Z</time>
      </trkpt>
      <trkpt lat="49.65833" lon="4.98777">
        <ele>147.7</ele>
        <time>2020-01-15T13:07:42Z</time>
      </trkpt>
      <trkpt lat="49.65842" lon="4.98759">
        <ele>149.62</ele>
        <time>2020-01-15T13:07:58Z</time>
      </trkpt>
      <trkpt lat="49.65855" lon="4.98736">
        <ele>152.51</ele>
        <time>2020-01-15T13:08:16Z</time>
      </trkpt>
      <trkpt lat="49.65871" lon="4.98708">
        <ele>155.87</ele>
        <time>2020-01-15T13:08:37Z</time>
      </trkpt>
      <trkpt lat="49.65884" lon="4.98685">
        <ele>151.06</ele>
        <time>2020-01-15T13:08:57Z</time>
      </trkpt>
      <trkpt lat="49.65883" lon="4.98683">
        <ele>150.1</ele>
        <time>2020-01-15T13:09:11Z</time>
      </trkpt>
      <trkpt lat="49.65894" lon="4.98658">
        <ele>151.54</ele>
        <time>2020-01-15T13:09:30Z</time>
      </trkpt>
      <trkpt lat="49.65903" lon="4.98643">
        <ele>152.51</ele>
        <time>2020-01-15T13:09:44Z</time>
      </trkpt>
      <trkpt lat="49.65914" lon="4.98625">
        <ele>152.51</ele>
        <time>2020-01-15T13:10:00Z</time>
      </trkpt>
      <trkpt lat="49.65925" lon="4.98604">
        <ele>151.54</ele>
        <time>2020-01-15T13:10:17Z</time>
      </trkpt>
      <trkpt lat="49.65927" lon="4.98604">
        <ele>151.06</ele>
        <time>2020-01-15T13:10:34Z</time>
      </trkpt>
      <trkpt lat="49.65937" lon="4.98578">
        <ele>151.06</ele>
        <time>2020-01-15T13:10:53Z</time>
      </trkpt>
      <trkpt lat="49.65944" lon="4.98564">
        <ele>153.47</ele>
        <time>2020-01-15T13:11:11Z</time>
      </trkpt>
      <trkpt lat="49.65948" lon="4.98552">
        <ele>153.47</ele>
        <time>2020-01-15T13:11:29Z</time>
      </trkpt>
      <trkpt lat="49.65951" lon="4.98545">
        <ele>152.51</ele>
        <time>2020-01-15T13:11:47Z</time>
      </trkpt>
      <trkpt lat="49.65954" lon="4.98537">
        <ele>152.99</ele>
        <time>2020-01-15T13:12:03Z</time>
      </trkpt>
      <trkpt lat="49.65966" lon="4.98511">
        <ele>153.95</ele>
        <time>2020-01-15T13:12:22Z</time>
      </trkpt>
      <trkpt lat="49.6597" lon="4.98502">
        <ele>152.99</ele>
        <time>2020-01-15T13:12:43Z</time>
      </trkpt>
      <trkpt lat="49.65974" lon="4.98496">
        <ele>152.99</ele>
        <time>2020-01-15T13:12:57Z</time>
      </trkpt>
      <trkpt lat="49.65981" lon="4.98484">
        <ele>152.51</ele>
        <time>2020-01-15T13:13:10Z</time>
      </trkpt>
      <trkpt lat="49.65994" lon="4.98461">
        <ele>151.06</ele>
        <time>2020-01-15T13:13:28Z</time>
      </trkpt>
      <trkpt lat="49.66002" lon="4.98448">
        <ele>150.1</ele>
        <time>2020-01-15T13:13:45Z</time>
      </trkpt>
      <trkpt lat="49.66015" lon="4.98427">
        <ele>148.66</ele>
        <time>2020-01-15T13:14:02Z</time>
      </trkpt>
      <trkpt lat="49.66017" lon="4.98424">
        <ele>149.62</ele>
        <time>2020-01-15T13:14:18Z</time>
      </trkpt>
      <trkpt lat="49.66021" lon="4.98415">
        <ele>150.1</ele>
        <time>2020-01-15T13:14:30Z</time>
      </trkpt>
      <trkpt lat="49.66037" lon="4.98386">
        <ele>152.03</ele>
        <time>2020-01-15T13:14:53Z</time>
      </trkpt>
      <trkpt lat="49.66048" lon="4.98367">
        <ele>152.03</ele>
        <time>2020-01-15T13:15:10Z</time>
      </trkpt>
      <trkpt lat="49.6606" lon="4.98346">
        <ele>151.06</ele>
        <time>2020-01-15T13:15:28Z</time>
      </trkpt>
      <trkpt lat="49.66072" lon="4.98322">
        <ele>153.47</ele>
        <time>2020-01-15T13:15:47Z</time>
      </trkpt>
      <trkpt lat="49.66081" lon="4.98305">
        <ele>154.43</ele>
        <time>2020-01-15T13:16:04Z</time>
      </trkpt>
      <trkpt lat="49.66092" lon="4.98284">
        <ele>155.87</ele>
        <time>2020-01-15T13:16:22Z</time>
      </trkpt>
      <trkpt lat="49.66105" lon="4.98259">
        <ele>153.95</ele>
        <time>2020-01-15T13:16:40Z</time>
      </trkpt>
      <trkpt lat="49.66114" lon="4.98241">
        <ele>153.47</ele>
        <time>2020-01-15T13:16:55Z</time>
      </trkpt>
      <trkpt lat="49.66121" lon="4.98229">
        <ele>151.06</ele>
        <time>2020-01-15T13:17:10Z</time>
      </trkpt>
      <trkpt lat="49.66129" lon="4.98211">
        <ele>149.14</ele>
        <time>2020-01-15T13:17:23Z</time>
      </trkpt>
      <trkpt lat="49.66135" lon="4.98196">
        <ele>148.18</ele>
        <time>2020-01-15T13:17:39Z</time>
      </trkpt>
      <trkpt lat="49.66146" lon="4.98177">
        <ele>146.74</ele>
        <time>2020-01-15T13:17:55Z</time>
      </trkpt>
      <trkpt lat="49.66152" lon="4.98165">
        <ele>147.7</ele>
        <time>2020-01-15T13:18:11Z</time>
      </trkpt>
      <trkpt lat="49.6616" lon="4.98149">
        <ele>149.62</ele>
        <time>2020-01-15T13:18:23Z</time>
      </trkpt>
      <trkpt lat="49.66168" lon="4.98132">
        <ele>150.58</ele>
        <time>2020-01-15T13:18:37Z</time>
      </trkpt>
      <trkpt lat="49.66176" lon="4.98117">
        <ele>150.58</ele>
        <time>2020-01-15T13:18:49Z</time>
      </trkpt>
      <trkpt lat="49.66178" lon="4.98114">
        <ele>150.1</ele>
        <time>2020-01-15T13:18:52Z</time>
      </trkpt>
      <trkpt lat="49.66181" lon="4.98104">
        <ele>150.1</ele>
        <time>2020-01-15T13:18:58Z</time>
      </trkpt>
      <trkpt lat="49.66186" lon="4.98091">
        <ele>148.66</ele>
        <time>2020-01-15T13:19:16Z</time>
      </trkpt>
      <trkpt lat="49.66187" lon="4.98091">
        <ele>149.62</ele>
        <time>2020-01-15T13:19:46Z</time>
      </trkpt>
      <trkpt lat="49.66187" lon="4.98091">
        <ele>150.1</ele>
        <time>2020-01-15T13:20:05Z</time>
      </trkpt>
      <trkpt lat="49.66188" lon="4.98093">
        <ele>149.62</ele>
        <time>2020-01-15T13:20:21Z</time>
      </trkpt>
      <trkpt lat="49.66191" lon="4.98089">
        <ele>149.62</ele>
        <time>2020-01-15T13:20:35Z</time>
      </trkpt>
      <trkpt lat="49.66198" lon="4.98075">
        <ele>151.06</ele>
        <time>2020-01-15T13:20:48Z</time>
      </trkpt>
      <trkpt lat="49.66204" lon="4.98063">
        <ele>152.03</ele>
        <time>2020-01-15T13:21:04Z</time>
      </trkpt>
      <trkpt lat="49.66216" lon="4.98041">
        <ele>152.99</ele>
        <time>2020-01-15T13:21:22Z</time>
      </trkpt>
      <trkpt lat="49.66223" lon="4.98028">
        <ele>152.03</ele>
        <time>2020-01-15T13:21:34Z</time>
      </trkpt>
      <trkpt lat="49.66238" lon="4.98004">
        <ele>155.39</ele>
        <time>2020-01-15T13:21:54Z</time>
      </trkpt>
      <trkpt lat="49.66245" lon="4.97987">
        <ele>154.43</ele>
        <time>2020-01-15T13:22:06Z</time>
      </trkpt>
      <trkpt lat="49.66259" lon="4.97961">
        <ele>151.54</ele>
        <time>2020-01-15T13:22:25Z</time>
      </trkpt>
      <trkpt lat="49.66273" lon="4.97934">
        <ele>149.14</ele>
        <time>2020-01-15T13:22:45Z</time>
      </trkpt>
      <trkpt lat="49.66278" lon="4.97921">
        <ele>150.1</ele>
        <time>2020-01-15T13:22:58Z</time>
      </trkpt>
      <trkpt lat="49.66285" lon="4.97905">
        <ele>152.51</ele>
        <time>2020-01-15T13:23:17Z</time>
      </trkpt>
      <trkpt lat="49.66295" lon="4.97886">
        <ele>151.54</ele>
        <time>2020-01-15T13:23:33Z</time>
      </trkpt>
      <trkpt lat="49.66309" lon="4.9786">
        <ele>149.14</ele>
        <time>2020-01-15T13:23:53Z</time>
      </trkpt>
      <trkpt lat="49.66321" lon="4.97837">
        <ele>147.7</ele>
        <time>2020-01-15T13:24:12Z</time>
      </trkpt>
      <trkpt lat="49.66338" lon="4.97806">
        <ele>148.18</ele>
        <time>2020-01-15T13:24:34Z</time>
      </trkpt>
      <trkpt lat="49.66353" lon="4.97778">
        <ele>146.74</ele>
        <time>2020-01-15T13:24:54Z</time>
      </trkpt>
      <trkpt lat="49.66366" lon="4.97752">
        <ele>147.22</ele>
        <time>2020-01-15T13:25:13Z</time>
      </trkpt>
      <trkpt lat="49.66383" lon="4.97722">
        <ele>147.7</ele>
        <time>2020-01-15T13:25:36Z</time>
      </trkpt>
      <trkpt lat="49.66397" lon="4.97697">
        <ele>147.22</ele>
        <time>2020-01-15T13:25:54Z</time>
      </trkpt>
      <trkpt lat="49.6641" lon="4.97673">
        <ele>150.1</ele>
        <time>2020-01-15T13:26:11Z</time>
      </trkpt>
      <trkpt lat="49.66422" lon="4.97648">
        <ele>152.51</ele>
        <time>2020-01-15T13:26:30Z</time>
      </trkpt>
      <trkpt lat="49.66435" lon="4.97622">
        <ele>152.03</ele>
        <time>2020-01-15T13:26:50Z</time>
      </trkpt>
      <trkpt lat="49.66448" lon="4.97599">
        <ele>148.18</ele>
        <time>2020-01-15T13:27:08Z</time>
      </trkpt>
      <trkpt lat="49.66454" lon="4.97583">
        <ele>148.66</ele>
        <time>2020-01-15T13:27:22Z</time>
      </trkpt>
      <trkpt lat="49.66462" lon="4.97566">
        <ele>150.58</ele>
        <time>2020-01-15T13:27:35Z</time>
      </trkpt>
      <trkpt lat="49.66475" lon="4.97545">
        <ele>152.99</ele>
        <time>2020-01-15T13:27:52Z</time>
      </trkpt>
      <trkpt lat="49.66476" lon="4.97544">
        <ele>152.99</ele>
        <time>2020-01-15T13:27:53Z</time>
      </trkpt>
      <trkpt lat="49.66488" lon="4.97524">
        <ele>152.03</ele>
        <time>2020-01-15T13:28:12Z</time>
      </trkpt>
      <trkpt lat="49.66494" lon="4.97512">
        <ele>152.99</ele>
        <time>2020-01-15T13:28:28Z</time>
      </trkpt>
      <trkpt lat="49.66508" lon="4.97485">
        <ele>151.06</ele>
        <time>2020-01-15T13:28:48Z</time>
      </trkpt>
      <trkpt lat="49.6652" lon="4.9746">
        <ele>148.18</ele>
        <time>2020-01-15T13:29:06Z</time>
      </trkpt>
      <trkpt lat="49.66526" lon="4.97434">
        <ele>148.18</ele>
        <time>2020-01-15T13:29:24Z</time>
      </trkpt>
      <trkpt lat="49.66528" lon="4.9743">
        <ele>147.7</ele>
        <time>2020-01-15T13:29:28Z</time>
      </trkpt>
      <trkpt lat="49.66534" lon="4.97419">
        <ele>144.82</ele>
        <time>2020-01-15T13:29:47Z</time>
      </trkpt>
      <trkpt lat="49.66537" lon="4.97416">
        <ele>145.3</ele>
        <time>2020-01-15T13:30:03Z</time>
      </trkpt>
      <trkpt lat="49.66543" lon="4.97404">
        <ele>143.37</ele>
        <time>2020-01-15T13:30:19Z</time>
      </trkpt>
      <trkpt lat="49.66549" lon="4.97392">
        <ele>143.37</ele>
        <time>2020-01-15T13:30:35Z</time>
      </trkpt>
      <trkpt lat="49.66565" lon="4.97364">
        <ele>144.82</ele>
        <time>2020-01-15T13:30:55Z</time>
      </trkpt>
      <trkpt lat="49.66576" lon="4.97341">
        <ele>143.85</ele>
        <time>2020-01-15T13:31:15Z</time>
      </trkpt>
      <trkpt lat="49.66586" lon="4.97323">
        <ele>144.34</ele>
        <time>2020-01-15T13:31:29Z</time>
      </trkpt>
      <trkpt lat="49.66601" lon="4.97291">
        <ele>145.3</ele>
        <time>2020-01-15T13:31:54Z</time>
      </trkpt>
      <trkpt lat="49.66614" lon="4.97264">
        <ele>145.78</ele>
        <time>2020-01-15T13:32:14Z</time>
      </trkpt>
      <trkpt lat="49.66625" lon="4.97234">
        <ele>147.22</ele>
        <time>2020-01-15T13:32:34Z</time>
      </trkpt>
      <trkpt lat="49.66636" lon="4.97203">
        <ele>149.14</ele>
        <time>2020-01-15T13:32:53Z</time>
      </trkpt>
      <trkpt lat="49.66641" lon="4.97189">
        <ele>149.62</ele>
        <time>2020-01-15T13:33:06Z</time>
      </trkpt>
      <trkpt lat="49.66651" lon="4.97166">
        <ele>150.58</ele>
        <time>2020-01-15T13:33:24Z</time>
      </trkpt>
      <trkpt lat="49.66649" lon="4.97166">
        <ele>149.62</ele>
        <time>2020-01-15T13:33:37Z</time>
      </trkpt>
      <trkpt lat="49.66648" lon="4.97167">
        <ele>148.66</ele>
        <time>2020-01-15T13:33:51Z</time>
      </trkpt>
      <trkpt lat="49.66648" lon="4.97163">
        <ele>149.62</ele>
        <time>2020-01-15T13:34:08Z</time>
      </trkpt>
      <trkpt lat="49.66648" lon="4.97162">
        <ele>149.14</ele>
        <time>2020-01-15T13:34:18Z</time>
      </trkpt>
      <trkpt lat="49.66651" lon="4.97157">
        <ele>148.66</ele>
        <time>2020-01-15T13:34:33Z</time>
      </trkpt>
      <trkpt lat="49.66654" lon="4.97148">
        <ele>149.14</ele>
        <time>2020-01-15T13:34:48Z</time>
      </trkpt>
      <trkpt lat="49.66663" lon="4.9712">
        <ele>150.1</ele>
        <time>2020-01-15T13:35:07Z</time>
      </trkpt>
      <trkpt lat="49.66673" lon="4.97096">
        <ele>151.54</ele>
        <time>2020-01-15T13:35:24Z</time>
      </trkpt>
      <trkpt lat="49.66685" lon="4.97066">
        <ele>152.51</ele>
        <time>2020-01-15T13:35:45Z</time>
      </trkpt>
      <trkpt lat="49.66697" lon="4.97043">
        <ele>149.14</ele>
        <time>2020-01-15T13:36:03Z</time>
      </trkpt>
      <trkpt lat="49.66711" lon="4.9702">
        <ele>146.26</ele>
        <time>2020-01-15T13:36:22Z</time>
      </trkpt>
      <trkpt lat="49.66718" lon="4.97006">
        <ele>145.78</ele>
        <time>2020-01-15T13:36:38Z</time>
      </trkpt>
      <trkpt lat="49.66722" lon="4.96996">
        <ele>147.22</ele>
        <time>2020-01-15T13:36:53Z</time>
      </trkpt>
      <trkpt lat="49.66733" lon="4.96981">
        <ele>150.1</ele>
        <time>2020-01-15T13:37:12Z</time>
      </trkpt>
      <trkpt lat="49.66751" lon="4.96958">
        <ele>149.62</ele>
        <time>2020-01-15T13:37:32Z</time>
      </trkpt>
      <trkpt lat="49.66762" lon="4.96941">
        <ele>147.22</ele>
        <time>2020-01-15T13:37:47Z</time>
      </trkpt>
      <trkpt lat="49.66768" lon="4.96933">
        <ele>146.26</ele>
        <time>2020-01-15T13:37:54Z</time>
      </trkpt>
      <trkpt lat="49.66779" lon="4.96916">
        <ele>144.34</ele>
        <time>2020-01-15T13:38:10Z</time>
      </trkpt>
      <trkpt lat="49.66791" lon="4.96887">
        <ele>144.82</ele>
        <time>2020-01-15T13:38:29Z</time>
      </trkpt>
      <trkpt lat="49.66802" lon="4.96862">
        <ele>146.74</ele>
        <time>2020-01-15T13:38:46Z</time>
      </trkpt>
      <trkpt lat="49.6681" lon="4.96834">
        <ele>144.82</ele>
        <time>2020-01-15T13:39:03Z</time>
      </trkpt>
      <trkpt lat="49.66821" lon="4.96806">
        <ele>145.78</ele>
        <time>2020-01-15T13:39:21Z</time>
      </trkpt>
      <trkpt lat="49.66829" lon="4.96773">
        <ele>146.26</ele>
        <time>2020-01-15T13:39:40Z</time>
      </trkpt>
      <trkpt lat="49.66831" lon="4.96752">
        <ele>147.22</ele>
        <time>2020-01-15T13:39:53Z</time>
      </trkpt>
      <trkpt lat="49.6683" lon="4.96745">
        <ele>148.18</ele>
        <time>2020-01-15T13:40:06Z</time>
      </trkpt>
      <trkpt lat="49.66829" lon="4.96744">
        <ele>148.66</ele>
        <time>2020-01-15T13:40:15Z</time>
      </trkpt>
      <trkpt lat="49.66828" lon="4.96716">
        <ele>148.18</ele>
        <time>2020-01-15T13:40:32Z</time>
      </trkpt>
      <trkpt lat="49.66826" lon="4.96694">
        <ele>146.26</ele>
        <time>2020-01-15T13:40:47Z</time>
      </trkpt>
      <trkpt lat="49.66821" lon="4.96669">
        <ele>145.78</ele>
        <time>2020-01-15T13:41:03Z</time>
      </trkpt>
      <trkpt lat="49.66818" lon="4.96643">
        <ele>147.22</ele>
        <time>2020-01-15T13:41:19Z</time>
      </trkpt>
      <trkpt lat="49.66813" lon="4.96613">
        <ele>147.22</ele>
        <time>2020-01-15T13:41:38Z</time>
      </trkpt>
      <trkpt lat="49.66809" lon="4.96587">
        <ele>148.66</ele>
        <time>2020-01-15T13:41:55Z</time>
      </trkpt>
      <trkpt lat="49.66805" lon="4.96569">
        <ele>149.62</ele>
        <time>2020-01-15T13:42:09Z</time>
      </trkpt>
      <trkpt lat="49.66804" lon="4.96561">
        <ele>149.62</ele>
        <time>2020-01-15T13:42:14Z</time>
      </trkpt>
      <trkpt lat="49.66801" lon="4.96544">
        <ele>151.06</ele>
        <time>2020-01-15T13:42:28Z</time>
      </trkpt>
      <trkpt lat="49.66799" lon="4.96526">
        <ele>151.54</ele>
        <time>2020-01-15T13:42:45Z</time>
      </trkpt>
      <trkpt lat="49.66797" lon="4.96516">
        <ele>152.03</ele>
        <time>2020-01-15T13:42:59Z</time>
      </trkpt>
      <trkpt lat="49.66795" lon="4.96501">
        <ele>152.03</ele>
        <time>2020-01-15T13:43:11Z</time>
      </trkpt>
      <trkpt lat="49.66791" lon="4.96484">
        <ele>152.99</ele>
        <time>2020-01-15T13:43:24Z</time>
      </trkpt>
      <trkpt lat="49.66788" lon="4.96466">
        <ele>152.99</ele>
        <time>2020-01-15T13:43:38Z</time>
      </trkpt>
      <trkpt lat="49.66784" lon="4.96451">
        <ele>153.95</ele>
        <time>2020-01-15T13:43:54Z</time>
      </trkpt>
      <trkpt lat="49.66783" lon="4.96435">
        <ele>152.99</ele>
        <time>2020-01-15T13:44:08Z</time>
      </trkpt>
      <trkpt lat="49.66775" lon="4.96411">
        <ele>152.51</ele>
        <time>2020-01-15T13:44:23Z</time>
      </trkpt>
      <trkpt lat="49.66774" lon="4.96404">
        <ele>152.03</ele>
        <time>2020-01-15T13:44:27Z</time>
      </trkpt>
      <trkpt lat="49.6677" lon="4.96373">
        <ele>152.51</ele>
        <time>2020-01-15T13:44:46Z</time>
      </trkpt>
      <trkpt lat="49.6677" lon="4.96371">
        <ele>152.51</ele>
        <time>2020-01-15T13:44:47Z</time>
      </trkpt>
      <trkpt lat="49.66765" lon="4.96347">
        <ele>146.74</ele>
        <time>2020-01-15T13:45:02Z</time>
      </trkpt>
      <trkpt lat="49.66765" lon="4.96323">
        <ele>145.78</ele>
        <time>2020-01-15T13:45:17Z</time>
      </trkpt>
      <trkpt lat="49.66767" lon="4.96296">
        <ele>148.66</ele>
        <time>2020-01-15T13:45:35Z</time>
      </trkpt>
      <trkpt lat="49.66768" lon="4.9628">
        <ele>148.18</ele>
        <time>2020-01-15T13:45:49Z</time>
      </trkpt>
      <trkpt lat="49.66772" lon="4.9626">
        <ele>148.66</ele>
        <time>2020-01-15T13:46:03Z</time>
      </trkpt>
      <trkpt lat="49.66775" lon="4.96242">
        <ele>149.14</ele>
        <time>2020-01-15T13:46:18Z</time>
      </trkpt>
      <trkpt lat="49.6678" lon="4.96221">
        <ele>147.7</ele>
        <time>2020-01-15T13:46:33Z</time>
      </trkpt>
      <trkpt lat="49.66787" lon="4.962">
        <ele>149.62</ele>
        <time>2020-01-15T13:46:48Z</time>
      </trkpt>
      <trkpt lat="49.66794" lon="4.96174">
        <ele>150.58</ele>
        <time>2020-01-15T13:47:05Z</time>
      </trkpt>
      <trkpt lat="49.668" lon="4.96147">
        <ele>149.14</ele>
        <time>2020-01-15T13:47:23Z</time>
      </trkpt>
      <trkpt lat="49.66811" lon="4.96121">
        <ele>148.66</ele>
        <time>2020-01-15T13:47:42Z</time>
      </trkpt>
      <trkpt lat="49.66818" lon="4.96101">
        <ele>149.14</ele>
        <time>2020-01-15T13:47:59Z</time>
      </trkpt>
      <trkpt lat="49.66826" lon="4.96084">
        <ele>147.7</ele>
        <time>2020-01-15T13:48:13Z</time>
      </trkpt>
      <trkpt lat="49.66832" lon="4.96064">
        <ele>145.78</ele>
        <time>2020-01-15T13:48:28Z</time>
      </trkpt>
      <trkpt lat="49.66838" lon="4.96048">
        <ele>144.34</ele>
        <time>2020-01-15T13:48:40Z</time>
      </trkpt>
      <trkpt lat="49.66851" lon="4.96027">
        <ele>148.18</ele>
        <time>2020-01-15T13:48:59Z</time>
      </trkpt>
      <trkpt lat="49.66852" lon="4.96023">
        <ele>148.66</ele>
        <time>2020-01-15T13:49:15Z</time>
      </trkpt>
      <trkpt lat="49.66861" lon="4.95998">
        <ele>148.18</ele>
        <time>2020-01-15T13:49:32Z</time>
      </trkpt>
      <trkpt lat="49.66867" lon="4.95982">
        <ele>148.18</ele>
        <time>2020-01-15T13:49:46Z</time>
      </trkpt>
      <trkpt lat="49.66873" lon="4.95967">
        <ele>147.22</ele>
        <time>2020-01-15T13:50:00Z</time>
      </trkpt>
      <trkpt lat="49.6688" lon="4.95949">
        <ele>148.66</ele>
        <time>2020-01-15T13:50:15Z</time>
      </trkpt>
      <trkpt lat="49.66882" lon="4.95945">
        <ele>152.51</ele>
        <time>2020-01-15T13:50:28Z</time>
      </trkpt>
      <trkpt lat="49.66883" lon="4.95945">
        <ele>153.95</ele>
        <time>2020-01-15T13:50:40Z</time>
      </trkpt>
      <trkpt lat="49.66884" lon="4.95945">
        <ele>154.91</ele>
        <time>2020-01-15T13:50:53Z</time>
      </trkpt>
      <trkpt lat="49.66884" lon="4.95943">
        <ele>154.91</ele>
        <time>2020-01-15T13:51:12Z</time>
      </trkpt>
      <trkpt lat="49.66884" lon="4.95943">
        <ele>154.91</ele>
        <time>2020-01-15T13:51:28Z</time>
      </trkpt>
      <trkpt lat="49.66882" lon="4.95943">
        <ele>154.43</ele>
        <time>2020-01-15T13:51:40Z</time>
      </trkpt>
      <trkpt lat="49.66877" lon="4.95949">
        <ele>152.99</ele>
        <time>2020-01-15T13:51:54Z</time>
      </trkpt>
      <trkpt lat="49.66868" lon="4.95966">
        <ele>153.47</ele>
        <time>2020-01-15T13:52:08Z</time>
      </trkpt>
      <trkpt lat="49.66857" lon="4.95989">
        <ele>153.47</ele>
        <time>2020-01-15T13:52:26Z</time>
      </trkpt>
      <trkpt lat="49.66846" lon="4.96013">
        <ele>154.91</ele>
        <time>2020-01-15T13:52:44Z</time>
      </trkpt>
      <trkpt lat="49.66835" lon="4.96016">
        <ele>155.87</ele>
        <time>2020-01-15T13:52:58Z</time>
      </trkpt>
      <trkpt lat="49.66824" lon="4.96005">
        <ele>157.31</ele>
        <time>2020-01-15T13:53:13Z</time>
      </trkpt>
      <trkpt lat="49.66823" lon="4.96001">
        <ele>156.83</ele>
        <time>2020-01-15T13:53:16Z</time>
      </trkpt>
      <trkpt lat="49.66824" lon="4.95975">
        <ele>155.39</ele>
        <time>2020-01-15T13:53:34Z</time>
      </trkpt>
      <trkpt lat="49.66832" lon="4.95955">
        <ele>156.83</ele>
        <time>2020-01-15T13:53:50Z</time>
      </trkpt>
      <trkpt lat="49.66839" lon="4.9593">
        <ele>154.43</ele>
        <time>2020-01-15T13:54:08Z</time>
      </trkpt>
      <trkpt lat="49.6685" lon="4.95905">
        <ele>154.91</ele>
        <time>2020-01-15T13:54:26Z</time>
      </trkpt>
      <trkpt lat="49.66852" lon="4.95898">
        <ele>156.35</ele>
        <time>2020-01-15T13:54:40Z</time>
      </trkpt>
      <trkpt lat="49.66859" lon="4.95871">
        <ele>155.39</ele>
        <time>2020-01-15T13:54:58Z</time>
      </trkpt>
      <trkpt lat="49.66862" lon="4.9585">
        <ele>152.03</ele>
        <time>2020-01-15T13:55:15Z</time>
      </trkpt>
      <trkpt lat="49.66865" lon="4.95834">
        <ele>148.66</ele>
        <time>2020-01-15T13:55:30Z</time>
      </trkpt>
      <trkpt lat="49.66866" lon="4.95833">
        <ele>148.66</ele>
        <time>2020-01-15T13:55:55Z</time>
      </trkpt>
      <trkpt lat="49.66868" lon="4.95827">
        <ele>150.1</ele>
        <time>2020-01-15T13:56:14Z</time>
      </trkpt>
      <trkpt lat="49.66873" lon="4.95812">
        <ele>150.58</ele>
        <time>2020-01-15T13:56:30Z</time>
      </trkpt>
      <trkpt lat="49.66877" lon="4.95799">
        <ele>150.58</ele>
        <time>2020-01-15T13:56:46Z</time>
      </trkpt>
      <trkpt lat="49.66881" lon="4.95785">
        <ele>149.14</ele>
        <time>2020-01-15T13:56:59Z</time>
      </trkpt>
      <trkpt lat="49.66887" lon="4.95764">
        <ele>146.74</ele>
        <time>2020-01-15T13:57:15Z</time>
      </trkpt>
      <trkpt lat="49.66889" lon="4.95759">
        <ele>146.74</ele>
        <time>2020-01-15T13:57:30Z</time>
      </trkpt>
      <trkpt lat="49.66892" lon="4.9575">
        <ele>148.66</ele>
        <time>2020-01-15T13:57:56Z</time>
      </trkpt>
      <trkpt lat="49.66898" lon="4.95726">
        <ele>146.74</ele>
        <time>2020-01-15T13:58:13Z</time>
      </trkpt>
      <trkpt lat="49.66906" lon="4.95698">
        <ele>145.3</ele>
        <time>2020-01-15T13:58:32Z</time>
      </trkpt>
      <trkpt lat="49.66911" lon="4.95687">
        <ele>146.74</ele>
        <time>2020-01-15T13:58:49Z</time>
      </trkpt>
      <trkpt lat="49.66917" lon="4.95672">
        <ele>146.26</ele>
        <time>2020-01-15T13:59:05Z</time>
      </trkpt>
      <trkpt lat="49.66924" lon="4.95662">
        <ele>150.1</ele>
        <time>2020-01-15T13:59:22Z</time>
      </trkpt>
      <trkpt lat="49.66925" lon="4.95657">
        <ele>149.62</ele>
        <time>2020-01-15T13:59:42Z</time>
      </trkpt>
      <trkpt lat="49.66928" lon="4.95648">
        <ele>150.58</ele>
        <time>2020-01-15T13:59:58Z</time>
      </trkpt>
      <trkpt lat="49.66933" lon="4.95633">
        <ele>150.58</ele>
        <time>2020-01-15T14:00:17Z</time>
      </trkpt>
      <trkpt lat="49.66941" lon="4.95602">
        <ele>150.1</ele>
        <time>2020-01-15T14:00:36Z</time>
      </trkpt>
      <trkpt lat="49.66948" lon="4.95575">
        <ele>146.74</ele>
        <time>2020-01-15T14:00:53Z</time>
      </trkpt>
      <trkpt lat="49.66948" lon="4.95574">
        <ele>146.74</ele>
        <time>2020-01-15T14:00:54Z</time>
      </trkpt>
      <trkpt lat="49.66953" lon="4.95548">
        <ele>145.3</ele>
        <time>2020-01-15T14:01:10Z</time>
      </trkpt>
      <trkpt lat="49.66948" lon="4.95536">
        <ele>149.62</ele>
        <time>2020-01-15T14:01:26Z</time>
      </trkpt>
      <trkpt lat="49.66935" lon="4.95526">
        <ele>149.14</ele>
        <time>2020-01-15T14:01:43Z</time>
      </trkpt>
      <trkpt lat="49.6693" lon="4.95522">
        <ele>150.1</ele>
        <time>2020-01-15T14:01:48Z</time>
      </trkpt>
      <trkpt lat="49.66915" lon="4.95509">
        <ele>152.99</ele>
        <time>2020-01-15T14:02:07Z</time>
      </trkpt>
      <trkpt lat="49.66903" lon="4.95503">
        <ele>152.03</ele>
        <time>2020-01-15T14:02:21Z</time>
      </trkpt>
      <trkpt lat="49.6688" lon="4.95492">
        <ele>152.99</ele>
        <time>2020-01-15T14:02:42Z</time>
      </trkpt>
      <trkpt lat="49.66862" lon="4.95481">
        <ele>152.03</ele>
        <time>2020-01-15T14:02:59Z</time>
      </trkpt>
      <trkpt lat="49.66849" lon="4.95476">
        <ele>150.1</ele>
        <time>2020-01-15T14:03:15Z</time>
      </trkpt>
      <trkpt lat="49.66833" lon="4.9547">
        <ele>152.51</ele>
        <time>2020-01-15T14:03:30Z</time>
      </trkpt>
      <trkpt lat="49.66824" lon="4.95465">
        <ele>155.39</ele>
        <time>2020-01-15T14:03:45Z</time>
      </trkpt>
      <trkpt lat="49.66806" lon="4.95459">
        <ele>157.79</ele>
        <time>2020-01-15T14:04:01Z</time>
      </trkpt>
      <trkpt lat="49.66785" lon="4.95448">
        <ele>160.68</ele>
        <time>2020-01-15T14:04:18Z</time>
      </trkpt>
      <trkpt lat="49.66774" lon="4.95455">
        <ele>160.2</ele>
        <time>2020-01-15T14:04:35Z</time>
      </trkpt>
      <trkpt lat="49.66771" lon="4.95455">
        <ele>164.04</ele>
        <time>2020-01-15T14:05:01Z</time>
      </trkpt>
      <trkpt lat="49.66761" lon="4.95451">
        <ele>162.12</ele>
        <time>2020-01-15T14:05:16Z</time>
      </trkpt>
      <trkpt lat="49.66746" lon="4.95447">
        <ele>161.64</ele>
        <time>2020-01-15T14:05:32Z</time>
      </trkpt>
      <trkpt lat="49.66731" lon="4.95441">
        <ele>159.72</ele>
        <time>2020-01-15T14:05:49Z</time>
      </trkpt>
      <trkpt lat="49.66713" lon="4.95442">
        <ele>158.75</ele>
        <time>2020-01-15T14:06:05Z</time>
      </trkpt>
      <trkpt lat="49.66692" lon="4.95427">
        <ele>160.68</ele>
        <time>2020-01-15T14:06:24Z</time>
      </trkpt>
      <trkpt lat="49.66672" lon="4.9541">
        <ele>159.72</ele>
        <time>2020-01-15T14:06:42Z</time>
      </trkpt>
      <trkpt lat="49.66658" lon="4.95395">
        <ele>157.31</ele>
        <time>2020-01-15T14:06:58Z</time>
      </trkpt>
      <trkpt lat="49.66643" lon="4.95372">
        <ele>159.24</ele>
        <time>2020-01-15T14:07:17Z</time>
      </trkpt>
      <trkpt lat="49.66628" lon="4.95344">
        <ele>157.79</ele>
        <time>2020-01-15T14:07:38Z</time>
      </trkpt>
      <trkpt lat="49.66616" lon="4.9532">
        <ele>154.91</ele>
        <time>2020-01-15T14:07:57Z</time>
      </trkpt>
      <trkpt lat="49.66604" lon="4.95299">
        <ele>155.87</ele>
        <time>2020-01-15T14:08:16Z</time>
      </trkpt>
      <trkpt lat="49.66604" lon="4.95298">
        <ele>156.35</ele>
        <time>2020-01-15T14:08:41Z</time>
      </trkpt>
      <trkpt lat="49.666" lon="4.95293">
        <ele>156.83</ele>
        <time>2020-01-15T14:08:55Z</time>
      </trkpt>
      <trkpt lat="49.66581" lon="4.95275">
        <ele>156.83</ele>
        <time>2020-01-15T14:09:14Z</time>
      </trkpt>
      <trkpt lat="49.66575" lon="4.95264">
        <ele>158.75</ele>
        <time>2020-01-15T14:09:30Z</time>
      </trkpt>
      <trkpt lat="49.66549" lon="4.95253">
        <ele>162.12</ele>
        <time>2020-01-15T14:09:51Z</time>
      </trkpt>
      <trkpt lat="49.66529" lon="4.95254">
        <ele>162.6</ele>
        <time>2020-01-15T14:10:10Z</time>
      </trkpt>
      <trkpt lat="49.66526" lon="4.95259">
        <ele>163.08</ele>
        <time>2020-01-15T14:10:14Z</time>
      </trkpt>
      <trkpt lat="49.66517" lon="4.95283">
        <ele>161.64</ele>
        <time>2020-01-15T14:10:31Z</time>
      </trkpt>
      <trkpt lat="49.66511" lon="4.95296">
        <ele>161.16</ele>
        <time>2020-01-15T14:10:48Z</time>
      </trkpt>
      <trkpt lat="49.66504" lon="4.95314">
        <ele>159.72</ele>
        <time>2020-01-15T14:11:04Z</time>
      </trkpt>
      <trkpt lat="49.665" lon="4.95328">
        <ele>157.31</ele>
        <time>2020-01-15T14:11:19Z</time>
      </trkpt>
      <trkpt lat="49.66493" lon="4.9535">
        <ele>155.39</ele>
        <time>2020-01-15T14:11:35Z</time>
      </trkpt>
      <trkpt lat="49.66484" lon="4.95378">
        <ele>155.39</ele>
        <time>2020-01-15T14:11:53Z</time>
      </trkpt>
      <trkpt lat="49.66481" lon="4.95388">
        <ele>155.87</ele>
        <time>2020-01-15T14:12:09Z</time>
      </trkpt>
      <trkpt lat="49.66471" lon="4.95415">
        <ele>153.95</ele>
        <time>2020-01-15T14:12:28Z</time>
      </trkpt>
      <trkpt lat="49.66463" lon="4.95443">
        <ele>152.51</ele>
        <time>2020-01-15T14:12:47Z</time>
      </trkpt>
      <trkpt lat="49.66466" lon="4.95453">
        <ele>153.95</ele>
        <time>2020-01-15T14:13:01Z</time>
      </trkpt>
      <trkpt lat="49.66468" lon="4.9546">
        <ele>156.35</ele>
        <time>2020-01-15T14:13:19Z</time>
      </trkpt>
      <trkpt lat="49.66468" lon="4.95462">
        <ele>157.31</ele>
        <time>2020-01-15T14:13:44Z</time>
      </trkpt>
      <trkpt lat="49.66469" lon="4.95463">
        <ele>157.79</ele>
        <time>2020-01-15T14:14:04Z</time>
      </trkpt>
      <trkpt lat="49.66471" lon="4.9547">
        <ele>158.27</ele>
        <time>2020-01-15T14:14:09Z</time>
      </trkpt>
      <trkpt lat="49.66481" lon="4.95496">
        <ele>158.27</ele>
        <time>2020-01-15T14:14:25Z</time>
      </trkpt>
      <trkpt lat="49.66484" lon="4.95501">
        <ele>157.79</ele>
        <time>2020-01-15T14:14:38Z</time>
      </trkpt>
      <trkpt lat="49.66498" lon="4.95488">
        <ele>157.31</ele>
        <time>2020-01-15T14:14:54Z</time>
      </trkpt>
      <trkpt lat="49.66517" lon="4.95478">
        <ele>158.75</ele>
        <time>2020-01-15T14:15:12Z</time>
      </trkpt>
      <trkpt lat="49.66531" lon="4.95475">
        <ele>159.24</ele>
        <time>2020-01-15T14:15:27Z</time>
      </trkpt>
      <trkpt lat="49.66533" lon="4.95475">
        <ele>158.75</ele>
        <time>2020-01-15T14:15:29Z</time>
      </trkpt>
      <trkpt lat="49.66545" lon="4.95478">
        <ele>158.27</ele>
        <time>2020-01-15T14:15:45Z</time>
      </trkpt>
      <trkpt lat="49.66562" lon="4.95492">
        <ele>159.72</ele>
        <time>2020-01-15T14:16:03Z</time>
      </trkpt>
      <trkpt lat="49.66568" lon="4.95501">
        <ele>160.2</ele>
        <time>2020-01-15T14:16:18Z</time>
      </trkpt>
      <trkpt lat="49.66583" lon="4.95512">
        <ele>160.68</ele>
        <time>2020-01-15T14:16:35Z</time>
      </trkpt>
      <trkpt lat="49.66603" lon="4.95525">
        <ele>159.24</ele>
        <time>2020-01-15T14:16:53Z</time>
      </trkpt>
      <trkpt lat="49.6662" lon="4.9554">
        <ele>156.35</ele>
        <time>2020-01-15T14:17:11Z</time>
      </trkpt>
      <trkpt lat="49.66634" lon="4.95552">
        <ele>154.91</ele>
        <time>2020-01-15T14:17:27Z</time>
      </trkpt>
      <trkpt lat="49.66645" lon="4.95558">
        <ele>156.35</ele>
        <time>2020-01-15T14:17:44Z</time>
      </trkpt>
      <trkpt lat="49.66655" lon="4.95569">
        <ele>157.31</ele>
        <time>2020-01-15T14:17:59Z</time>
      </trkpt>
      <trkpt lat="49.66667" lon="4.95587">
        <ele>158.27</ele>
        <time>2020-01-15T14:18:14Z</time>
      </trkpt>
      <trkpt lat="49.66681" lon="4.95607">
        <ele>159.24</ele>
        <time>2020-01-15T14:18:32Z</time>
      </trkpt>
      <trkpt lat="49.66687" lon="4.95614">
        <ele>158.75</ele>
        <time>2020-01-15T14:18:47Z</time>
      </trkpt>
      <trkpt lat="49.66699" lon="4.95632">
        <ele>155.87</ele>
        <time>2020-01-15T14:19:02Z</time>
      </trkpt>
      <trkpt lat="49.66711" lon="4.95648">
        <ele>154.43</ele>
        <time>2020-01-15T14:19:16Z</time>
      </trkpt>
      <trkpt lat="49.66721" lon="4.95671">
        <ele>154.91</ele>
        <time>2020-01-15T14:19:33Z</time>
      </trkpt>
      <trkpt lat="49.66726" lon="4.95694">
        <ele>160.2</ele>
        <time>2020-01-15T14:19:48Z</time>
      </trkpt>
      <trkpt lat="49.6673" lon="4.95704">
        <ele>163.08</ele>
        <time>2020-01-15T14:19:57Z</time>
      </trkpt>
      <trkpt lat="49.66744" lon="4.95731">
        <ele>163.56</ele>
        <time>2020-01-15T14:20:18Z</time>
      </trkpt>
      <trkpt lat="49.66747" lon="4.95734">
        <ele>163.08</ele>
        <time>2020-01-15T14:20:21Z</time>
      </trkpt>
      <trkpt lat="49.66764" lon="4.95764">
        <ele>162.6</ele>
        <time>2020-01-15T14:20:44Z</time>
      </trkpt>
      <trkpt lat="49.66772" lon="4.95774">
        <ele>162.12</ele>
        <time>2020-01-15T14:20:59Z</time>
      </trkpt>
      <trkpt lat="49.66784" lon="4.95789">
        <ele>162.12</ele>
        <time>2020-01-15T14:21:16Z</time>
      </trkpt>
      <trkpt lat="49.66788" lon="4.95795">
        <ele>163.56</ele>
        <time>2020-01-15T14:21:35Z</time>
      </trkpt>
      <trkpt lat="49.6679" lon="4.95803">
        <ele>163.56</ele>
        <time>2020-01-15T14:21:49Z</time>
      </trkpt>
      <trkpt lat="49.66787" lon="4.95808">
        <ele>162.6</ele>
        <time>2020-01-15T14:22:06Z</time>
      </trkpt>
      <trkpt lat="49.66787" lon="4.95811">
        <ele>162.12</ele>
        <time>2020-01-15T14:22:32Z</time>
      </trkpt>
      <trkpt lat="49.66787" lon="4.9581">
        <ele>162.12</ele>
        <time>2020-01-15T14:22:48Z</time>
      </trkpt>
      <trkpt lat="49.66791" lon="4.95807">
        <ele>162.6</ele>
        <time>2020-01-15T14:23:05Z</time>
      </trkpt>
      <trkpt lat="49.66797" lon="4.95808">
        <ele>163.56</ele>
        <time>2020-01-15T14:23:19Z</time>
      </trkpt>
      <trkpt lat="49.66805" lon="4.95816">
        <ele>162.12</ele>
        <time>2020-01-15T14:23:32Z</time>
      </trkpt>
      <trkpt lat="49.66812" lon="4.95825">
        <ele>160.68</ele>
        <time>2020-01-15T14:23:46Z</time>
      </trkpt>
      <trkpt lat="49.66818" lon="4.95831">
        <ele>160.2</ele>
        <time>2020-01-15T14:24:00Z</time>
      </trkpt>
      <trkpt lat="49.66824" lon="4.95838">
        <ele>161.16</ele>
        <time>2020-01-15T14:24:14Z</time>
      </trkpt>
      <trkpt lat="49.66825" lon="4.9584">
        <ele>160.2</ele>
        <time>2020-01-15T14:24:30Z</time>
      </trkpt>
      <trkpt lat="49.66827" lon="4.95843">
        <ele>159.72</ele>
        <time>2020-01-15T14:24:52Z</time>
      </trkpt>
      <trkpt lat="49.66834" lon="4.95853">
        <ele>158.75</ele>
        <time>2020-01-15T14:25:10Z</time>
      </trkpt>
      <trkpt lat="49.66837" lon="4.95857">
        <ele>158.75</ele>
        <time>2020-01-15T14:25:24Z</time>
      </trkpt>
      <trkpt lat="49.66845" lon="4.95869">
        <ele>158.75</ele>
        <time>2020-01-15T14:25:40Z</time>
      </trkpt>
      <trkpt lat="49.6685" lon="4.9588">
        <ele>158.75</ele>
        <time>2020-01-15T14:25:48Z</time>
      </trkpt>
      <trkpt lat="49.66849" lon="4.95883">
        <ele>158.75</ele>
        <time>2020-01-15T14:25:50Z</time>
      </trkpt>
      <trkpt lat="49.66844" lon="4.95902">
        <ele>157.79</ele>
        <time>2020-01-15T14:26:02Z</time>
      </trkpt>
      <trkpt lat="49.66841" lon="4.95907">
        <ele>156.35</ele>
        <time>2020-01-15T14:26:06Z</time>
      </trkpt>
      <trkpt lat="49.66839" lon="4.95915">
        <ele>155.87</ele>
        <time>2020-01-15T14:26:11Z</time>
      </trkpt>
      <trkpt lat="49.66838" lon="4.95918">
        <ele>155.87</ele>
        <time>2020-01-15T14:26:13Z</time>
      </trkpt>
      <trkpt lat="49.66837" lon="4.95925">
        <ele>155.87</ele>
        <time>2020-01-15T14:26:18Z</time>
      </trkpt>
      <trkpt lat="49.66832" lon="4.95953">
        <ele>160.68</ele>
        <time>2020-01-15T14:26:35Z</time>
      </trkpt>
      <trkpt lat="49.66832" lon="4.95964">
        <ele>161.64</ele>
        <time>2020-01-15T14:26:43Z</time>
      </trkpt>
      <trkpt lat="49.66831" lon="4.95972">
        <ele>161.64</ele>
        <time>2020-01-15T14:26:48Z</time>
      </trkpt>
      <trkpt lat="49.66823" lon="4.95996">
        <ele>158.75</ele>
        <time>2020-01-15T14:27:07Z</time>
      </trkpt>
      <trkpt lat="49.66823" lon="4.95996">
        <ele>158.27</ele>
        <time>2020-01-15T14:27:10Z</time>
      </trkpt>
      <trkpt lat="49.66825" lon="4.96006">
        <ele>158.27</ele>
        <time>2020-01-15T14:27:16Z</time>
      </trkpt>
      <trkpt lat="49.6683" lon="4.96013">
        <ele>160.2</ele>
        <time>2020-01-15T14:27:31Z</time>
      </trkpt>
      <trkpt lat="49.66835" lon="4.96016">
        <ele>161.16</ele>
        <time>2020-01-15T14:27:36Z</time>
      </trkpt>
      <trkpt lat="49.66839" lon="4.96017">
        <ele>161.64</ele>
        <time>2020-01-15T14:27:40Z</time>
      </trkpt>
      <trkpt lat="49.66854" lon="4.96001">
        <ele>159.72</ele>
        <time>2020-01-15T14:27:58Z</time>
      </trkpt>
      <trkpt lat="49.66865" lon="4.95978">
        <ele>158.27</ele>
        <time>2020-01-15T14:28:16Z</time>
      </trkpt>
      <trkpt lat="49.66874" lon="4.95957">
        <ele>158.27</ele>
        <time>2020-01-15T14:28:33Z</time>
      </trkpt>
      <trkpt lat="49.66876" lon="4.95956">
        <ele>158.27</ele>
        <time>2020-01-15T14:28:50Z</time>
      </trkpt>
      <trkpt lat="49.66875" lon="4.95955">
        <ele>159.24</ele>
        <time>2020-01-15T14:29:06Z</time>
      </trkpt>
      <trkpt lat="49.66876" lon="4.95956">
        <ele>159.72</ele>
        <time>2020-01-15T14:29:25Z</time>
      </trkpt>
      <trkpt lat="49.66876" lon="4.95956">
        <ele>160.2</ele>
        <time>2020-01-15T14:29:38Z</time>
      </trkpt>
      <trkpt lat="49.66875" lon="4.95961">
        <ele>159.72</ele>
        <time>2020-01-15T14:29:54Z</time>
      </trkpt>
      <trkpt lat="49.66875" lon="4.95961">
        <ele>159.72</ele>
        <time>2020-01-15T14:29:56Z</time>
      </trkpt>
      <trkpt lat="49.66864" lon="4.95992">
        <ele>160.68</ele>
        <time>2020-01-15T14:30:15Z</time>
      </trkpt>
      <trkpt lat="49.66856" lon="4.96013">
        <ele>159.24</ele>
        <time>2020-01-15T14:30:30Z</time>
      </trkpt>
      <trkpt lat="49.66846" lon="4.96035">
        <ele>157.79</ele>
        <time>2020-01-15T14:30:47Z</time>
      </trkpt>
      <trkpt lat="49.66835" lon="4.96064">
        <ele>156.35</ele>
        <time>2020-01-15T14:31:05Z</time>
      </trkpt>
      <trkpt lat="49.66823" lon="4.96088">
        <ele>150.1</ele>
        <time>2020-01-15T14:31:23Z</time>
      </trkpt>
      <trkpt lat="49.66814" lon="4.96108">
        <ele>150.1</ele>
        <time>2020-01-15T14:31:37Z</time>
      </trkpt>
      <trkpt lat="49.66807" lon="4.96128">
        <ele>151.06</ele>
        <time>2020-01-15T14:31:55Z</time>
      </trkpt>
      <trkpt lat="49.66806" lon="4.9613">
        <ele>151.06</ele>
        <time>2020-01-15T14:31:57Z</time>
      </trkpt>
      <trkpt lat="49.668" lon="4.96148">
        <ele>152.03</ele>
        <time>2020-01-15T14:32:11Z</time>
      </trkpt>
      <trkpt lat="49.66793" lon="4.96175">
        <ele>152.51</ele>
        <time>2020-01-15T14:32:29Z</time>
      </trkpt>
      <trkpt lat="49.6679" lon="4.96189">
        <ele>151.06</ele>
        <time>2020-01-15T14:32:40Z</time>
      </trkpt>
      <trkpt lat="49.66783" lon="4.96213">
        <ele>151.06</ele>
        <time>2020-01-15T14:32:57Z</time>
      </trkpt>
      <trkpt lat="49.66775" lon="4.96242">
        <ele>152.03</ele>
        <time>2020-01-15T14:33:17Z</time>
      </trkpt>
      <trkpt lat="49.66772" lon="4.96256">
        <ele>153.47</ele>
        <time>2020-01-15T14:33:25Z</time>
      </trkpt>
      <trkpt lat="49.66771" lon="4.96275">
        <ele>156.83</ele>
        <time>2020-01-15T14:33:37Z</time>
      </trkpt>
      <trkpt lat="49.6677" lon="4.96282">
        <ele>157.79</ele>
        <time>2020-01-15T14:33:41Z</time>
      </trkpt>
      <trkpt lat="49.66767" lon="4.96298">
        <ele>159.24</ele>
        <time>2020-01-15T14:33:49Z</time>
      </trkpt>
      <trkpt lat="49.66766" lon="4.96334">
        <ele>160.2</ele>
        <time>2020-01-15T14:34:10Z</time>
      </trkpt>
      <trkpt lat="49.66767" lon="4.96355">
        <ele>158.75</ele>
        <time>2020-01-15T14:34:24Z</time>
      </trkpt>
      <trkpt lat="49.66767" lon="4.96375">
        <ele>155.39</ele>
        <time>2020-01-15T14:34:40Z</time>
      </trkpt>
      <trkpt lat="49.66766" lon="4.96376">
        <ele>153.95</ele>
        <time>2020-01-15T14:34:57Z</time>
      </trkpt>
      <trkpt lat="49.66765" lon="4.96377">
        <ele>153.47</ele>
        <time>2020-01-15T14:35:18Z</time>
      </trkpt>
      <trkpt lat="49.66764" lon="4.96377">
        <ele>152.51</ele>
        <time>2020-01-15T14:35:39Z</time>
      </trkpt>
      <trkpt lat="49.66765" lon="4.96377">
        <ele>152.03</ele>
        <time>2020-01-15T14:36:01Z</time>
      </trkpt>
      <trkpt lat="49.66765" lon="4.96377">
        <ele>152.03</ele>
        <time>2020-01-15T14:36:18Z</time>
      </trkpt>
      <trkpt lat="49.66765" lon="4.96378">
        <ele>152.99</ele>
        <time>2020-01-15T14:36:41Z</time>
      </trkpt>
      <trkpt lat="49.66766" lon="4.96377">
        <ele>153.95</ele>
        <time>2020-01-15T14:37:00Z</time>
      </trkpt>
      <trkpt lat="49.66766" lon="4.96377">
        <ele>154.43</ele>
        <time>2020-01-15T14:37:18Z</time>
      </trkpt>
      <trkpt lat="49.66766" lon="4.96379">
        <ele>156.35</ele>
        <time>2020-01-15T14:37:53Z</time>
      </trkpt>
      <trkpt lat="49.66766" lon="4.96378">
        <ele>155.87</ele>
        <time>2020-01-15T14:38:07Z</time>
      </trkpt>
      <trkpt lat="49.66766" lon="4.96377">
        <ele>156.35</ele>
        <time>2020-01-15T14:38:20Z</time>
      </trkpt>
      <trkpt lat="49.66766" lon="4.96376">
        <ele>155.39</ele>
        <time>2020-01-15T14:38:31Z</time>
      </trkpt>
      <trkpt lat="49.66766" lon="4.96374">
        <ele>155.87</ele>
        <time>2020-01-15T14:38:52Z</time>
      </trkpt>
      <trkpt lat="49.66766" lon="4.96374">
        <ele>155.87</ele>
        <time>2020-01-15T14:39:08Z</time>
      </trkpt>
      <trkpt lat="49.66767" lon="4.96376">
        <ele>156.35</ele>
        <time>2020-01-15T14:39:26Z</time>
      </trkpt>
      <trkpt lat="49.66767" lon="4.96376">
        <ele>156.35</ele>
        <time>2020-01-15T14:39:46Z</time>
      </trkpt>
      <trkpt lat="49.66767" lon="4.96377">
        <ele>156.35</ele>
        <time>2020-01-15T14:40:01Z</time>
      </trkpt>
      <trkpt lat="49.66766" lon="4.96378">
        <ele>156.35</ele>
        <time>2020-01-15T14:40:22Z</time>
      </trkpt>
      <trkpt lat="49.66767" lon="4.96378">
        <ele>156.35</ele>
        <time>2020-01-15T14:40:48Z</time>
      </trkpt>
      <trkpt lat="49.66767" lon="4.96379">
        <ele>156.35</ele>
        <time>2020-01-15T14:41:07Z</time>
      </trkpt>
      <trkpt lat="49.66769" lon="4.96388">
        <ele>155.87</ele>
        <time>2020-01-15T14:41:23Z</time>
      </trkpt>
      <trkpt lat="49.66779" lon="4.96416">
        <ele>152.03</ele>
        <time>2020-01-15T14:41:42Z</time>
      </trkpt>
      <trkpt lat="49.66781" lon="4.96429">
        <ele>151.06</ele>
        <time>2020-01-15T14:41:58Z</time>
      </trkpt>
      <trkpt lat="49.66784" lon="4.96452">
        <ele>151.06</ele>
        <time>2020-01-15T14:42:16Z</time>
      </trkpt>
      <trkpt lat="49.66788" lon="4.96473">
        <ele>150.58</ele>
        <time>2020-01-15T14:42:31Z</time>
      </trkpt>
      <trkpt lat="49.66796" lon="4.96511">
        <ele>147.7</ele>
        <time>2020-01-15T14:42:53Z</time>
      </trkpt>
      <trkpt lat="49.66802" lon="4.96544">
        <ele>145.3</ele>
        <time>2020-01-15T14:43:12Z</time>
      </trkpt>
      <trkpt lat="49.66808" lon="4.96572">
        <ele>143.85</ele>
        <time>2020-01-15T14:43:30Z</time>
      </trkpt>
      <trkpt lat="49.66815" lon="4.96603">
        <ele>141.93</ele>
        <time>2020-01-15T14:43:50Z</time>
      </trkpt>
      <trkpt lat="49.6682" lon="4.96634">
        <ele>138.57</ele>
        <time>2020-01-15T14:44:10Z</time>
      </trkpt>
      <trkpt lat="49.66825" lon="4.96671">
        <ele>138.57</ele>
        <time>2020-01-15T14:44:32Z</time>
      </trkpt>
      <trkpt lat="49.66827" lon="4.96702">
        <ele>142.41</ele>
        <time>2020-01-15T14:44:50Z</time>
      </trkpt>
      <trkpt lat="49.66829" lon="4.96738">
        <ele>146.26</ele>
        <time>2020-01-15T14:45:10Z</time>
      </trkpt>
      <trkpt lat="49.66827" lon="4.96776">
        <ele>151.06</ele>
        <time>2020-01-15T14:45:33Z</time>
      </trkpt>
      <trkpt lat="49.66823" lon="4.96795">
        <ele>152.99</ele>
        <time>2020-01-15T14:45:49Z</time>
      </trkpt>
      <trkpt lat="49.66816" lon="4.96822">
        <ele>152.51</ele>
        <time>2020-01-15T14:46:07Z</time>
      </trkpt>
      <trkpt lat="49.66807" lon="4.96849">
        <ele>151.06</ele>
        <time>2020-01-15T14:46:26Z</time>
      </trkpt>
      <trkpt lat="49.66796" lon="4.96878">
        <ele>150.1</ele>
        <time>2020-01-15T14:46:45Z</time>
      </trkpt>
      <trkpt lat="49.66785" lon="4.96908">
        <ele>151.54</ele>
        <time>2020-01-15T14:47:06Z</time>
      </trkpt>
      <trkpt lat="49.66775" lon="4.9692">
        <ele>150.1</ele>
        <time>2020-01-15T14:47:21Z</time>
      </trkpt>
      <trkpt lat="49.66774" lon="4.96921">
        <ele>149.62</ele>
        <time>2020-01-15T14:47:22Z</time>
      </trkpt>
      <trkpt lat="49.66755" lon="4.96948">
        <ele>147.7</ele>
        <time>2020-01-15T14:47:42Z</time>
      </trkpt>
      <trkpt lat="49.6674" lon="4.96969">
        <ele>152.03</ele>
        <time>2020-01-15T14:48:02Z</time>
      </trkpt>
      <trkpt lat="49.66722" lon="4.96998">
        <ele>150.1</ele>
        <time>2020-01-15T14:48:23Z</time>
      </trkpt>
      <trkpt lat="49.66707" lon="4.97018">
        <ele>148.66</ele>
        <time>2020-01-15T14:48:42Z</time>
      </trkpt>
      <trkpt lat="49.66699" lon="4.97032">
        <ele>148.18</ele>
        <time>2020-01-15T14:48:55Z</time>
      </trkpt>
      <trkpt lat="49.66687" lon="4.97059">
        <ele>148.66</ele>
        <time>2020-01-15T14:49:15Z</time>
      </trkpt>
      <trkpt lat="49.66679" lon="4.97077">
        <ele>150.58</ele>
        <time>2020-01-15T14:49:34Z</time>
      </trkpt>
      <trkpt lat="49.66667" lon="4.97107">
        <ele>150.1</ele>
        <time>2020-01-15T14:49:56Z</time>
      </trkpt>
      <trkpt lat="49.66657" lon="4.97136">
        <ele>152.03</ele>
        <time>2020-01-15T14:50:16Z</time>
      </trkpt>
      <trkpt lat="49.66647" lon="4.97168">
        <ele>151.54</ele>
        <time>2020-01-15T14:50:37Z</time>
      </trkpt>
      <trkpt lat="49.66637" lon="4.97201">
        <ele>148.66</ele>
        <time>2020-01-15T14:50:59Z</time>
      </trkpt>
      <trkpt lat="49.66631" lon="4.97222">
        <ele>148.18</ele>
        <time>2020-01-15T14:51:13Z</time>
      </trkpt>
      <trkpt lat="49.6662" lon="4.9725">
        <ele>148.18</ele>
        <time>2020-01-15T14:51:32Z</time>
      </trkpt>
      <trkpt lat="49.66604" lon="4.97284">
        <ele>147.22</ele>
        <time>2020-01-15T14:51:56Z</time>
      </trkpt>
      <trkpt lat="49.66588" lon="4.97315">
        <ele>147.7</ele>
        <time>2020-01-15T14:52:18Z</time>
      </trkpt>
      <trkpt lat="49.66571" lon="4.97346">
        <ele>148.18</ele>
        <time>2020-01-15T14:52:41Z</time>
      </trkpt>
      <trkpt lat="49.66557" lon="4.97375">
        <ele>145.78</ele>
        <time>2020-01-15T14:53:02Z</time>
      </trkpt>
      <trkpt lat="49.66543" lon="4.97399">
        <ele>140.97</ele>
        <time>2020-01-15T14:53:20Z</time>
      </trkpt>
      <trkpt lat="49.66535" lon="4.97411">
        <ele>143.85</ele>
        <time>2020-01-15T14:53:38Z</time>
      </trkpt>
      <trkpt lat="49.66526" lon="4.97436">
        <ele>144.82</ele>
        <time>2020-01-15T14:53:54Z</time>
      </trkpt>
      <trkpt lat="49.66516" lon="4.97465">
        <ele>147.22</ele>
        <time>2020-01-15T14:54:15Z</time>
      </trkpt>
      <trkpt lat="49.66501" lon="4.97493">
        <ele>148.18</ele>
        <time>2020-01-15T14:54:36Z</time>
      </trkpt>
      <trkpt lat="49.66489" lon="4.97517">
        <ele>146.74</ele>
        <time>2020-01-15T14:54:56Z</time>
      </trkpt>
      <trkpt lat="49.66484" lon="4.97527">
        <ele>147.7</ele>
        <time>2020-01-15T14:55:10Z</time>
      </trkpt>
      <trkpt lat="49.66476" lon="4.97539">
        <ele>149.62</ele>
        <time>2020-01-15T14:55:28Z</time>
      </trkpt>
      <trkpt lat="49.66463" lon="4.97566">
        <ele>150.1</ele>
        <time>2020-01-15T14:55:47Z</time>
      </trkpt>
      <trkpt lat="49.66448" lon="4.97594">
        <ele>154.43</ele>
        <time>2020-01-15T14:56:08Z</time>
      </trkpt>
      <trkpt lat="49.66439" lon="4.9761">
        <ele>155.39</ele>
        <time>2020-01-15T14:56:26Z</time>
      </trkpt>
      <trkpt lat="49.66427" lon="4.97634">
        <ele>156.35</ele>
        <time>2020-01-15T14:56:45Z</time>
      </trkpt>
      <trkpt lat="49.6641" lon="4.97666">
        <ele>158.27</ele>
        <time>2020-01-15T14:57:09Z</time>
      </trkpt>
      <trkpt lat="49.66395" lon="4.97694">
        <ele>157.31</ele>
        <time>2020-01-15T14:57:31Z</time>
      </trkpt>
      <trkpt lat="49.6638" lon="4.9772">
        <ele>156.35</ele>
        <time>2020-01-15T14:57:52Z</time>
      </trkpt>
      <trkpt lat="49.6637" lon="4.97741">
        <ele>155.87</ele>
        <time>2020-01-15T14:58:12Z</time>
      </trkpt>
      <trkpt lat="49.66369" lon="4.97747">
        <ele>157.31</ele>
        <time>2020-01-15T14:58:34Z</time>
      </trkpt>
      <trkpt lat="49.66351" lon="4.97781">
        <ele>157.79</ele>
        <time>2020-01-15T14:59:01Z</time>
      </trkpt>
      <trkpt lat="49.66337" lon="4.97804">
        <ele>155.39</ele>
        <time>2020-01-15T14:59:20Z</time>
      </trkpt>
      <trkpt lat="49.66322" lon="4.97832">
        <ele>154.43</ele>
        <time>2020-01-15T14:59:42Z</time>
      </trkpt>
      <trkpt lat="49.66308" lon="4.97865">
        <ele>153.95</ele>
        <time>2020-01-15T15:00:05Z</time>
      </trkpt>
      <trkpt lat="49.66295" lon="4.97888">
        <ele>155.87</ele>
        <time>2020-01-15T15:00:24Z</time>
      </trkpt>
      <trkpt lat="49.6628" lon="4.97916">
        <ele>156.83</ele>
        <time>2020-01-15T15:00:45Z</time>
      </trkpt>
      <trkpt lat="49.66278" lon="4.97918">
        <ele>155.39</ele>
        <time>2020-01-15T15:00:59Z</time>
      </trkpt>
      <trkpt lat="49.66263" lon="4.97948">
        <ele>156.35</ele>
        <time>2020-01-15T15:01:21Z</time>
      </trkpt>
      <trkpt lat="49.66247" lon="4.97979">
        <ele>156.83</ele>
        <time>2020-01-15T15:01:43Z</time>
      </trkpt>
      <trkpt lat="49.66236" lon="4.98002">
        <ele>157.31</ele>
        <time>2020-01-15T15:02:01Z</time>
      </trkpt>
      <trkpt lat="49.66221" lon="4.98031">
        <ele>159.24</ele>
        <time>2020-01-15T15:02:22Z</time>
      </trkpt>
      <trkpt lat="49.66207" lon="4.98057">
        <ele>157.79</ele>
        <time>2020-01-15T15:02:43Z</time>
      </trkpt>
      <trkpt lat="49.66195" lon="4.98075">
        <ele>156.35</ele>
        <time>2020-01-15T15:03:02Z</time>
      </trkpt>
      <trkpt lat="49.66181" lon="4.98101">
        <ele>154.43</ele>
        <time>2020-01-15T15:03:22Z</time>
      </trkpt>
      <trkpt lat="49.66179" lon="4.98107">
        <ele>154.43</ele>
        <time>2020-01-15T15:03:37Z</time>
      </trkpt>
      <trkpt lat="49.66178" lon="4.98108">
        <ele>156.35</ele>
        <time>2020-01-15T15:04:03Z</time>
      </trkpt>
      <trkpt lat="49.66179" lon="4.98108">
        <ele>156.83</ele>
        <time>2020-01-15T15:04:35Z</time>
      </trkpt>
      <trkpt lat="49.6618" lon="4.98107">
        <ele>156.83</ele>
        <time>2020-01-15T15:04:55Z</time>
      </trkpt>
      <trkpt lat="49.6618" lon="4.98107">
        <ele>157.79</ele>
        <time>2020-01-15T15:05:19Z</time>
      </trkpt>
      <trkpt lat="49.66181" lon="4.98107">
        <ele>158.27</ele>
        <time>2020-01-15T15:05:38Z</time>
      </trkpt>
      <trkpt lat="49.66182" lon="4.98106">
        <ele>159.72</ele>
        <time>2020-01-15T15:06:02Z</time>
      </trkpt>
      <trkpt lat="49.66181" lon="4.98107">
        <ele>158.75</ele>
        <time>2020-01-15T15:06:21Z</time>
      </trkpt>
      <trkpt lat="49.66178" lon="4.98107">
        <ele>157.79</ele>
        <time>2020-01-15T15:06:52Z</time>
      </trkpt>
      <trkpt lat="49.66178" lon="4.9811">
        <ele>158.27</ele>
        <time>2020-01-15T15:07:18Z</time>
      </trkpt>
      <trkpt lat="49.66178" lon="4.9811">
        <ele>158.75</ele>
        <time>2020-01-15T15:07:46Z</time>
      </trkpt>
      <trkpt lat="49.66177" lon="4.98112">
        <ele>157.79</ele>
        <time>2020-01-15T15:08:16Z</time>
      </trkpt>
      <trkpt lat="49.66177" lon="4.98114">
        <ele>157.79</ele>
        <time>2020-01-15T15:08:45Z</time>
      </trkpt>
      <trkpt lat="49.66178" lon="4.98113">
        <ele>157.79</ele>
        <time>2020-01-15T15:09:11Z</time>
      </trkpt>
      <trkpt lat="49.66178" lon="4.98111">
        <ele>156.83</ele>
        <time>2020-01-15T15:09:34Z</time>
      </trkpt>
      <trkpt lat="49.66179" lon="4.98111">
        <ele>156.83</ele>
        <time>2020-01-15T15:09:58Z</time>
      </trkpt>
      <trkpt lat="49.6618" lon="4.98111">
        <ele>156.35</ele>
        <time>2020-01-15T15:10:19Z</time>
      </trkpt>
      <trkpt lat="49.66177" lon="4.98117">
        <ele>155.39</ele>
        <time>2020-01-15T15:10:34Z</time>
      </trkpt>
      <trkpt lat="49.66172" lon="4.98125">
        <ele>153.95</ele>
        <time>2020-01-15T15:10:50Z</time>
      </trkpt>
      <trkpt lat="49.66168" lon="4.9813">
        <ele>153.95</ele>
        <time>2020-01-15T15:11:07Z</time>
      </trkpt>
      <trkpt lat="49.66153" lon="4.9816">
        <ele>151.54</ele>
        <time>2020-01-15T15:11:28Z</time>
      </trkpt>
      <trkpt lat="49.66146" lon="4.98174">
        <ele>150.58</ele>
        <time>2020-01-15T15:11:44Z</time>
      </trkpt>
      <trkpt lat="49.66133" lon="4.98199">
        <ele>151.54</ele>
        <time>2020-01-15T15:12:03Z</time>
      </trkpt>
      <trkpt lat="49.66118" lon="4.98227">
        <ele>152.99</ele>
        <time>2020-01-15T15:12:23Z</time>
      </trkpt>
      <trkpt lat="49.66105" lon="4.98251">
        <ele>152.03</ele>
        <time>2020-01-15T15:12:42Z</time>
      </trkpt>
      <trkpt lat="49.66091" lon="4.98278">
        <ele>151.06</ele>
        <time>2020-01-15T15:13:03Z</time>
      </trkpt>
      <trkpt lat="49.66078" lon="4.98301">
        <ele>151.06</ele>
        <time>2020-01-15T15:13:21Z</time>
      </trkpt>
      <trkpt lat="49.66064" lon="4.98328">
        <ele>151.54</ele>
        <time>2020-01-15T15:13:41Z</time>
      </trkpt>
      <trkpt lat="49.66055" lon="4.98345">
        <ele>152.51</ele>
        <time>2020-01-15T15:14:01Z</time>
      </trkpt>
      <trkpt lat="49.66041" lon="4.98374">
        <ele>153.95</ele>
        <time>2020-01-15T15:14:21Z</time>
      </trkpt>
      <trkpt lat="49.6603" lon="4.98398">
        <ele>153.95</ele>
        <time>2020-01-15T15:14:40Z</time>
      </trkpt>
      <trkpt lat="49.66024" lon="4.98411">
        <ele>155.39</ele>
        <time>2020-01-15T15:15:01Z</time>
      </trkpt>
      <trkpt lat="49.66009" lon="4.98436">
        <ele>155.87</ele>
        <time>2020-01-15T15:15:21Z</time>
      </trkpt>
      <trkpt lat="49.66001" lon="4.9845">
        <ele>156.83</ele>
        <time>2020-01-15T15:15:38Z</time>
      </trkpt>
      <trkpt lat="49.65982" lon="4.98479">
        <ele>155.39</ele>
        <time>2020-01-15T15:16:01Z</time>
      </trkpt>
      <trkpt lat="49.65967" lon="4.98505">
        <ele>156.35</ele>
        <time>2020-01-15T15:16:23Z</time>
      </trkpt>
      <trkpt lat="49.6596" lon="4.98523">
        <ele>155.87</ele>
        <time>2020-01-15T15:16:41Z</time>
      </trkpt>
      <trkpt lat="49.65946" lon="4.98549">
        <ele>153.47</ele>
        <time>2020-01-15T15:17:01Z</time>
      </trkpt>
      <trkpt lat="49.65934" lon="4.98572">
        <ele>149.14</ele>
        <time>2020-01-15T15:17:20Z</time>
      </trkpt>
      <trkpt lat="49.65924" lon="4.98597">
        <ele>144.82</ele>
        <time>2020-01-15T15:17:38Z</time>
      </trkpt>
      <trkpt lat="49.65916" lon="4.98614">
        <ele>144.82</ele>
        <time>2020-01-15T15:17:55Z</time>
      </trkpt>
      <trkpt lat="49.65913" lon="4.9862">
        <ele>146.74</ele>
        <time>2020-01-15T15:18:07Z</time>
      </trkpt>
      <trkpt lat="49.65898" lon="4.98649">
        <ele>151.54</ele>
        <time>2020-01-15T15:18:29Z</time>
      </trkpt>
      <trkpt lat="49.65894" lon="4.98659">
        <ele>153.95</ele>
        <time>2020-01-15T15:18:44Z</time>
      </trkpt>
      <trkpt lat="49.65892" lon="4.98664">
        <ele>153.47</ele>
        <time>2020-01-15T15:19:03Z</time>
      </trkpt>
      <trkpt lat="49.65878" lon="4.9869">
        <ele>152.99</ele>
        <time>2020-01-15T15:19:25Z</time>
      </trkpt>
      <trkpt lat="49.65863" lon="4.98717">
        <ele>153.47</ele>
        <time>2020-01-15T15:19:43Z</time>
      </trkpt>
      <trkpt lat="49.65851" lon="4.98739">
        <ele>152.51</ele>
        <time>2020-01-15T15:20:01Z</time>
      </trkpt>
      <trkpt lat="49.65835" lon="4.98772">
        <ele>152.03</ele>
        <time>2020-01-15T15:20:25Z</time>
      </trkpt>
      <trkpt lat="49.65822" lon="4.98796">
        <ele>152.51</ele>
        <time>2020-01-15T15:20:44Z</time>
      </trkpt>
      <trkpt lat="49.6582" lon="4.98801">
        <ele>152.99</ele>
        <time>2020-01-15T15:20:57Z</time>
      </trkpt>
      <trkpt lat="49.65812" lon="4.98815">
        <ele>152.51</ele>
        <time>2020-01-15T15:21:13Z</time>
      </trkpt>
      <trkpt lat="49.65806" lon="4.98829">
        <ele>152.51</ele>
        <time>2020-01-15T15:21:31Z</time>
      </trkpt>
      <trkpt lat="49.65793" lon="4.98851">
        <ele>152.51</ele>
        <time>2020-01-15T15:21:51Z</time>
      </trkpt>
      <trkpt lat="49.65786" lon="4.98864">
        <ele>152.03</ele>
        <time>2020-01-15T15:22:07Z</time>
      </trkpt>
      <trkpt lat="49.65772" lon="4.98889">
        <ele>148.18</ele>
        <time>2020-01-15T15:22:26Z</time>
      </trkpt>
      <trkpt lat="49.65759" lon="4.98914">
        <ele>145.78</ele>
        <time>2020-01-15T15:22:46Z</time>
      </trkpt>
      <trkpt lat="49.65744" lon="4.98946">
        <ele>146.74</ele>
        <time>2020-01-15T15:23:10Z</time>
      </trkpt>
      <trkpt lat="49.65728" lon="4.98973">
        <ele>146.74</ele>
        <time>2020-01-15T15:23:30Z</time>
      </trkpt>
      <trkpt lat="49.65713" lon="4.99002">
        <ele>147.22</ele>
        <time>2020-01-15T15:23:52Z</time>
      </trkpt>
      <trkpt lat="49.65698" lon="4.99027">
        <ele>147.22</ele>
        <time>2020-01-15T15:24:12Z</time>
      </trkpt>
      <trkpt lat="49.65681" lon="4.99055">
        <ele>149.14</ele>
        <time>2020-01-15T15:24:35Z</time>
      </trkpt>
      <trkpt lat="49.65667" lon="4.99077">
        <ele>149.62</ele>
        <time>2020-01-15T15:24:55Z</time>
      </trkpt>
      <trkpt lat="49.6565" lon="4.99106">
        <ele>150.1</ele>
        <time>2020-01-15T15:25:17Z</time>
      </trkpt>
      <trkpt lat="49.65634" lon="4.99132">
        <ele>150.58</ele>
        <time>2020-01-15T15:25:37Z</time>
      </trkpt>
      <trkpt lat="49.65615" lon="4.99163">
        <ele>152.03</ele>
        <time>2020-01-15T15:26:02Z</time>
      </trkpt>
      <trkpt lat="49.65609" lon="4.99173">
        <ele>152.03</ele>
        <time>2020-01-15T15:26:16Z</time>
      </trkpt>
      <trkpt lat="49.65597" lon="4.99194">
        <ele>151.06</ele>
        <time>2020-01-15T15:26:34Z</time>
      </trkpt>
      <trkpt lat="49.6558" lon="4.99221">
        <ele>151.54</ele>
        <time>2020-01-15T15:26:56Z</time>
      </trkpt>
      <trkpt lat="49.65567" lon="4.99242">
        <ele>151.54</ele>
        <time>2020-01-15T15:27:17Z</time>
      </trkpt>
      <trkpt lat="49.65567" lon="4.99244">
        <ele>152.51</ele>
        <time>2020-01-15T15:27:36Z</time>
      </trkpt>
      <trkpt lat="49.65567" lon="4.99243">
        <ele>153.47</ele>
        <time>2020-01-15T15:27:53Z</time>
      </trkpt>
      <trkpt lat="49.65567" lon="4.99243">
        <ele>154.91</ele>
        <time>2020-01-15T15:28:10Z</time>
      </trkpt>
      <trkpt lat="49.65563" lon="4.99239">
        <ele>155.87</ele>
        <time>2020-01-15T15:28:31Z</time>
      </trkpt>
      <trkpt lat="49.65558" lon="4.99232">
        <ele>155.39</ele>
        <time>2020-01-15T15:28:39Z</time>
      </trkpt>
      <trkpt lat="49.65547" lon="4.99222">
        <ele>153.95</ele>
        <time>2020-01-15T15:28:56Z</time>
      </trkpt>
      <trkpt lat="49.65537" lon="4.99217">
        <ele>152.99</ele>
        <time>2020-01-15T15:29:18Z</time>
      </trkpt>
      <trkpt lat="49.65517" lon="4.99202">
        <ele>152.51</ele>
        <time>2020-01-15T15:29:36Z</time>
      </trkpt>
      <trkpt lat="49.65504" lon="4.99196">
        <ele>155.39</ele>
        <time>2020-01-15T15:29:51Z</time>
      </trkpt>
      <trkpt lat="49.65503" lon="4.99196">
        <ele>155.39</ele>
        <time>2020-01-15T15:29:53Z</time>
      </trkpt>
      <trkpt lat="49.65485" lon="4.99224">
        <ele>156.35</ele>
        <time>2020-01-15T15:30:13Z</time>
      </trkpt>
      <trkpt lat="49.65477" lon="4.99252">
        <ele>157.31</ele>
        <time>2020-01-15T15:30:31Z</time>
      </trkpt>
      <trkpt lat="49.65467" lon="4.99275">
        <ele>155.87</ele>
        <time>2020-01-15T15:30:49Z</time>
      </trkpt>
      <trkpt lat="49.65465" lon="4.99278">
        <ele>156.35</ele>
        <time>2020-01-15T15:30:52Z</time>
      </trkpt>
      <trkpt lat="49.65463" lon="4.9928">
        <ele>156.35</ele>
        <time>2020-01-15T15:30:54Z</time>
      </trkpt>
      <trkpt lat="49.65453" lon="4.99276">
        <ele>156.83</ele>
        <time>2020-01-15T15:31:04Z</time>
      </trkpt>
      <trkpt lat="49.65438" lon="4.99256">
        <ele>154.43</ele>
        <time>2020-01-15T15:31:21Z</time>
      </trkpt>
      <trkpt lat="49.65431" lon="4.99246">
        <ele>152.03</ele>
        <time>2020-01-15T15:31:30Z</time>
      </trkpt>
      <trkpt lat="49.65421" lon="4.99229">
        <ele>151.54</ele>
        <time>2020-01-15T15:31:45Z</time>
      </trkpt>
      <trkpt lat="49.65414" lon="4.99221">
        <ele>152.51</ele>
        <time>2020-01-15T15:31:52Z</time>
      </trkpt>
      <trkpt lat="49.65408" lon="4.99211">
        <ele>153.95</ele>
        <time>2020-01-15T15:32:08Z</time>
      </trkpt>
      <trkpt lat="49.65396" lon="4.99195">
        <ele>154.43</ele>
        <time>2020-01-15T15:32:23Z</time>
      </trkpt>
      <trkpt lat="49.65383" lon="4.99182">
        <ele>157.31</ele>
        <time>2020-01-15T15:32:38Z</time>
      </trkpt>
      <trkpt lat="49.65382" lon="4.99184">
        <ele>157.79</ele>
        <time>2020-01-15T15:32:40Z</time>
      </trkpt>
      <trkpt lat="49.65373" lon="4.99192">
        <ele>158.27</ele>
        <time>2020-01-15T15:32:52Z</time>
      </trkpt>
      <trkpt lat="49.6537" lon="4.99186">
        <ele>156.83</ele>
        <time>2020-01-15T15:32:58Z</time>
      </trkpt>
      <trkpt lat="49.65374" lon="4.9918">
        <ele>156.35</ele>
        <time>2020-01-15T15:33:03Z</time>
      </trkpt>
      <trkpt lat="49.65366" lon="4.99158">
        <ele>152.99</ele>
        <time>2020-01-15T15:33:19Z</time>
      </trkpt>
      <trkpt lat="49.65359" lon="4.99142">
        <ele>154.43</ele>
        <time>2020-01-15T15:33:35Z</time>
      </trkpt>
      <trkpt lat="49.65359" lon="4.99136">
        <ele>163.08</ele>
        <time>2020-01-15T15:33:55Z</time>
      </trkpt>
      <trkpt lat="49.65359" lon="4.99135">
        <ele>165.48</ele>
        <time>2020-01-15T15:34:20Z</time>
      </trkpt>
      <trkpt lat="49.65358" lon="4.99136">
        <ele>165.48</ele>
        <time>2020-01-15T15:34:35Z</time>
      </trkpt>
      <trkpt lat="49.65353" lon="4.99126">
        <ele>164.52</ele>
        <time>2020-01-15T15:34:47Z</time>
      </trkpt>
      <trkpt lat="49.65347" lon="4.99117">
        <ele>164.52</ele>
        <time>2020-01-15T15:34:55Z</time>
      </trkpt>
      <trkpt lat="49.6534" lon="4.99102">
        <ele>165.48</ele>
        <time>2020-01-15T15:35:05Z</time>
      </trkpt>
      <trkpt lat="49.65329" lon="4.99072">
        <ele>159.72</ele>
        <time>2020-01-15T15:35:25Z</time>
      </trkpt>
      <trkpt lat="49.65317" lon="4.99042">
        <ele>159.72</ele>
        <time>2020-01-15T15:35:47Z</time>
      </trkpt>
      <trkpt lat="49.65316" lon="4.99039">
        <ele>159.24</ele>
        <time>2020-01-15T15:35:49Z</time>
      </trkpt>
      <trkpt lat="49.65296" lon="4.99019">
        <ele>155.87</ele>
        <time>2020-01-15T15:36:09Z</time>
      </trkpt>
      <trkpt lat="49.6529" lon="4.99011">
        <ele>154.43</ele>
        <time>2020-01-15T15:36:17Z</time>
      </trkpt>
      <trkpt lat="49.65272" lon="4.98997">
        <ele>152.99</ele>
        <time>2020-01-15T15:36:34Z</time>
      </trkpt>
      <trkpt lat="49.6525" lon="4.98979">
        <ele>152.03</ele>
        <time>2020-01-15T15:36:54Z</time>
      </trkpt>
      <trkpt lat="49.65229" lon="4.98963">
        <ele>151.54</ele>
        <time>2020-01-15T15:37:15Z</time>
      </trkpt>
      <trkpt lat="49.65209" lon="4.98944">
        <ele>154.43</ele>
        <time>2020-01-15T15:37:35Z</time>
      </trkpt>
      <trkpt lat="49.65186" lon="4.98924">
        <ele>152.03</ele>
        <time>2020-01-15T15:37:59Z</time>
      </trkpt>
      <trkpt lat="49.65166" lon="4.98907">
        <ele>149.62</ele>
        <time>2020-01-15T15:38:19Z</time>
      </trkpt>
      <trkpt lat="49.65148" lon="4.98892">
        <ele>147.22</ele>
        <time>2020-01-15T15:38:39Z</time>
      </trkpt>
      <trkpt lat="49.65129" lon="4.98875">
        <ele>146.74</ele>
        <time>2020-01-15T15:38:59Z</time>
      </trkpt>
      <trkpt lat="49.65112" lon="4.98856">
        <ele>148.66</ele>
        <time>2020-01-15T15:39:17Z</time>
      </trkpt>
      <trkpt lat="49.65091" lon="4.98832">
        <ele>153.47</ele>
        <time>2020-01-15T15:39:40Z</time>
      </trkpt>
      <trkpt lat="49.65081" lon="4.9882">
        <ele>154.43</ele>
        <time>2020-01-15T15:39:57Z</time>
      </trkpt>
      <trkpt lat="49.65062" lon="4.988">
        <ele>153.95</ele>
        <time>2020-01-15T15:40:18Z</time>
      </trkpt>
      <trkpt lat="49.65043" lon="4.98783">
        <ele>152.03</ele>
        <time>2020-01-15T15:40:39Z</time>
      </trkpt>
      <trkpt lat="49.65031" lon="4.98773">
        <ele>152.03</ele>
        <time>2020-01-15T15:40:56Z</time>
      </trkpt>
      <trkpt lat="49.65011" lon="4.98755">
        <ele>153.47</ele>
        <time>2020-01-15T15:41:14Z</time>
      </trkpt>
      <trkpt lat="49.64987" lon="4.98733">
        <ele>155.87</ele>
        <time>2020-01-15T15:41:38Z</time>
      </trkpt>
      <trkpt lat="49.64966" lon="4.98713">
        <ele>155.39</ele>
        <time>2020-01-15T15:42:00Z</time>
      </trkpt>
      <trkpt lat="49.64943" lon="4.98693">
        <ele>152.03</ele>
        <time>2020-01-15T15:42:23Z</time>
      </trkpt>
      <trkpt lat="49.64922" lon="4.98678">
        <ele>154.91</ele>
        <time>2020-01-15T15:42:45Z</time>
      </trkpt>
      <trkpt lat="49.64901" lon="4.98669">
        <ele>152.51</ele>
        <time>2020-01-15T15:43:06Z</time>
      </trkpt>
      <trkpt lat="49.64879" lon="4.98651">
        <ele>156.35</ele>
        <time>2020-01-15T15:43:28Z</time>
      </trkpt>
      <trkpt lat="49.64866" lon="4.98642">
        <ele>157.79</ele>
        <time>2020-01-15T15:43:43Z</time>
      </trkpt>
      <trkpt lat="49.64845" lon="4.98626">
        <ele>159.24</ele>
        <time>2020-01-15T15:44:04Z</time>
      </trkpt>
      <trkpt lat="49.6482" lon="4.98612">
        <ele>155.87</ele>
        <time>2020-01-15T15:44:27Z</time>
      </trkpt>
      <trkpt lat="49.64802" lon="4.98602">
        <ele>155.87</ele>
        <time>2020-01-15T15:44:46Z</time>
      </trkpt>
      <trkpt lat="49.64785" lon="4.98594">
        <ele>152.99</ele>
        <time>2020-01-15T15:45:04Z</time>
      </trkpt>
      <trkpt lat="49.64777" lon="4.9859">
        <ele>152.51</ele>
        <time>2020-01-15T15:45:20Z</time>
      </trkpt>
      <trkpt lat="49.64771" lon="4.98587">
        <ele>152.99</ele>
        <time>2020-01-15T15:45:35Z</time>
      </trkpt>
      <trkpt lat="49.64747" lon="4.9857">
        <ele>150.58</ele>
        <time>2020-01-15T15:45:54Z</time>
      </trkpt>
      <trkpt lat="49.64741" lon="4.98567">
        <ele>150.1</ele>
        <time>2020-01-15T15:45:59Z</time>
      </trkpt>
      <trkpt lat="49.64718" lon="4.98558">
        <ele>151.54</ele>
        <time>2020-01-15T15:46:20Z</time>
      </trkpt>
      <trkpt lat="49.64698" lon="4.98546">
        <ele>151.06</ele>
        <time>2020-01-15T15:46:40Z</time>
      </trkpt>
      <trkpt lat="49.64679" lon="4.98533">
        <ele>151.06</ele>
        <time>2020-01-15T15:46:57Z</time>
      </trkpt>
      <trkpt lat="49.64659" lon="4.98525">
        <ele>149.14</ele>
        <time>2020-01-15T15:47:18Z</time>
      </trkpt>
      <trkpt lat="49.64637" lon="4.98512">
        <ele>152.99</ele>
        <time>2020-01-15T15:47:37Z</time>
      </trkpt>
      <trkpt lat="49.64618" lon="4.985">
        <ele>157.31</ele>
        <time>2020-01-15T15:47:56Z</time>
      </trkpt>
      <trkpt lat="49.646" lon="4.98489">
        <ele>157.31</ele>
        <time>2020-01-15T15:48:14Z</time>
      </trkpt>
      <trkpt lat="49.64594" lon="4.98487">
        <ele>155.87</ele>
        <time>2020-01-15T15:48:29Z</time>
      </trkpt>
      <trkpt lat="49.64595" lon="4.98487">
        <ele>155.87</ele>
        <time>2020-01-15T15:48:56Z</time>
      </trkpt>
      <trkpt lat="49.64587" lon="4.98486">
        <ele>155.39</ele>
        <time>2020-01-15T15:49:16Z</time>
      </trkpt>
      <trkpt lat="49.64569" lon="4.98473">
        <ele>148.66</ele>
        <time>2020-01-15T15:49:35Z</time>
      </trkpt>
      <trkpt lat="49.64557" lon="4.98462">
        <ele>143.85</ele>
        <time>2020-01-15T15:49:55Z</time>
      </trkpt>
      <trkpt lat="49.64544" lon="4.98458">
        <ele>144.34</ele>
        <time>2020-01-15T15:50:11Z</time>
      </trkpt>
      <trkpt lat="49.64525" lon="4.98449">
        <ele>140.49</ele>
        <time>2020-01-15T15:50:29Z</time>
      </trkpt>
      <trkpt lat="49.64514" lon="4.98441">
        <ele>143.85</ele>
        <time>2020-01-15T15:50:47Z</time>
      </trkpt>
      <trkpt lat="49.6451" lon="4.98438">
        <ele>147.22</ele>
        <time>2020-01-15T15:51:00Z</time>
      </trkpt>
      <trkpt lat="49.64508" lon="4.98437">
        <ele>148.66</ele>
        <time>2020-01-15T15:51:22Z</time>
      </trkpt>
      <trkpt lat="49.64506" lon="4.98435">
        <ele>149.62</ele>
        <time>2020-01-15T15:51:45Z</time>
      </trkpt>
      <trkpt lat="49.64503" lon="4.98431">
        <ele>149.62</ele>
        <time>2020-01-15T15:52:02Z</time>
      </trkpt>
      <trkpt lat="49.64489" lon="4.98417">
        <ele>144.34</ele>
        <time>2020-01-15T15:52:23Z</time>
      </trkpt>
      <trkpt lat="49.64468" lon="4.98403">
        <ele>138.57</ele>
        <time>2020-01-15T15:52:42Z</time>
      </trkpt>
      <trkpt lat="49.64456" lon="4.98399">
        <ele>141.93</ele>
        <time>2020-01-15T15:52:58Z</time>
      </trkpt>
      <trkpt lat="49.64442" lon="4.98393">
        <ele>142.41</ele>
        <time>2020-01-15T15:53:13Z</time>
      </trkpt>
      <trkpt lat="49.6442" lon="4.98383">
        <ele>142.41</ele>
        <time>2020-01-15T15:53:32Z</time>
      </trkpt>
      <trkpt lat="49.644" lon="4.98366">
        <ele>148.66</ele>
        <time>2020-01-15T15:53:50Z</time>
      </trkpt>
      <trkpt lat="49.64386" lon="4.98354">
        <ele>149.14</ele>
        <time>2020-01-15T15:54:09Z</time>
      </trkpt>
      <trkpt lat="49.64368" lon="4.98343">
        <ele>150.1</ele>
        <time>2020-01-15T15:54:26Z</time>
      </trkpt>
      <trkpt lat="49.6435" lon="4.98331">
        <ele>152.03</ele>
        <time>2020-01-15T15:54:44Z</time>
      </trkpt>
      <trkpt lat="49.64337" lon="4.9832">
        <ele>153.47</ele>
        <time>2020-01-15T15:54:59Z</time>
      </trkpt>
      <trkpt lat="49.64319" lon="4.98304">
        <ele>152.51</ele>
        <time>2020-01-15T15:55:17Z</time>
      </trkpt>
      <trkpt lat="49.64302" lon="4.98291">
        <ele>151.06</ele>
        <time>2020-01-15T15:55:37Z</time>
      </trkpt>
      <trkpt lat="49.64294" lon="4.98281">
        <ele>150.58</ele>
        <time>2020-01-15T15:55:55Z</time>
      </trkpt>
      <trkpt lat="49.64273" lon="4.98267">
        <ele>151.06</ele>
        <time>2020-01-15T15:56:13Z</time>
      </trkpt>
      <trkpt lat="49.64253" lon="4.98251">
        <ele>153.47</ele>
        <time>2020-01-15T15:56:31Z</time>
      </trkpt>
      <trkpt lat="49.64235" lon="4.98234">
        <ele>154.43</ele>
        <time>2020-01-15T15:56:51Z</time>
      </trkpt>
      <trkpt lat="49.64219" lon="4.98221">
        <ele>156.83</ele>
        <time>2020-01-15T15:57:09Z</time>
      </trkpt>
      <trkpt lat="49.64203" lon="4.982">
        <ele>160.68</ele>
        <time>2020-01-15T15:57:29Z</time>
      </trkpt>
      <trkpt lat="49.64195" lon="4.98192">
        <ele>160.68</ele>
        <time>2020-01-15T15:57:41Z</time>
      </trkpt>
      <trkpt lat="49.64176" lon="4.98174">
        <ele>155.87</ele>
        <time>2020-01-15T15:57:59Z</time>
      </trkpt>
      <trkpt lat="49.64161" lon="4.98163">
        <ele>151.54</ele>
        <time>2020-01-15T15:58:16Z</time>
      </trkpt>
      <trkpt lat="49.64151" lon="4.98154">
        <ele>152.99</ele>
        <time>2020-01-15T15:58:32Z</time>
      </trkpt>
      <trkpt lat="49.64148" lon="4.98149">
        <ele>154.43</ele>
        <time>2020-01-15T15:58:53Z</time>
      </trkpt>
      <trkpt lat="49.64135" lon="4.98139">
        <ele>152.51</ele>
        <time>2020-01-15T15:59:11Z</time>
      </trkpt>
      <trkpt lat="49.64115" lon="4.98118">
        <ele>152.99</ele>
        <time>2020-01-15T15:59:25Z</time>
      </trkpt>
      <trkpt lat="49.64098" lon="4.98102">
        <ele>155.87</ele>
        <time>2020-01-15T15:59:41Z</time>
      </trkpt>
      <trkpt lat="49.64078" lon="4.98083">
        <ele>160.2</ele>
        <time>2020-01-15T16:00:00Z</time>
      </trkpt>
      <trkpt lat="49.6406" lon="4.98068">
        <ele>161.64</ele>
        <time>2020-01-15T16:00:19Z</time>
      </trkpt>
      <trkpt lat="49.64047" lon="4.98054">
        <ele>160.2</ele>
        <time>2020-01-15T16:00:37Z</time>
      </trkpt>
      <trkpt lat="49.64033" lon="4.98042">
        <ele>158.75</ele>
        <time>2020-01-15T16:00:53Z</time>
      </trkpt>
      <trkpt lat="49.64022" lon="4.98029">
        <ele>157.79</ele>
        <time>2020-01-15T16:01:10Z</time>
      </trkpt>
      <trkpt lat="49.64011" lon="4.98018">
        <ele>156.35</ele>
        <time>2020-01-15T16:01:26Z</time>
      </trkpt>
      <trkpt lat="49.63998" lon="4.98009">
        <ele>152.51</ele>
        <time>2020-01-15T16:01:40Z</time>
      </trkpt>
      <trkpt lat="49.63978" lon="4.97988">
        <ele>154.91</ele>
        <time>2020-01-15T16:01:58Z</time>
      </trkpt>
      <trkpt lat="49.63962" lon="4.97975">
        <ele>154.91</ele>
        <time>2020-01-15T16:02:17Z</time>
      </trkpt>
      <trkpt lat="49.63948" lon="4.97962">
        <ele>157.31</ele>
        <time>2020-01-15T16:02:33Z</time>
      </trkpt>
      <trkpt lat="49.6394" lon="4.97954">
        <ele>158.27</ele>
        <time>2020-01-15T16:02:47Z</time>
      </trkpt>
      <trkpt lat="49.63924" lon="4.97937">
        <ele>161.16</ele>
        <time>2020-01-15T16:03:05Z</time>
      </trkpt>
      <trkpt lat="49.63904" lon="4.97919">
        <ele>157.79</ele>
        <time>2020-01-15T16:03:24Z</time>
      </trkpt>
      <trkpt lat="49.63888" lon="4.97906">
        <ele>156.35</ele>
        <time>2020-01-15T16:03:43Z</time>
      </trkpt>
      <trkpt lat="49.63879" lon="4.97898">
        <ele>155.87</ele>
        <time>2020-01-15T16:04:00Z</time>
      </trkpt>
      <trkpt lat="49.63868" lon="4.97887">
        <ele>152.51</ele>
        <time>2020-01-15T16:04:17Z</time>
      </trkpt>
      <trkpt lat="49.6386" lon="4.97879">
        <ele>150.1</ele>
        <time>2020-01-15T16:04:30Z</time>
      </trkpt>
      <trkpt lat="49.63854" lon="4.97872">
        <ele>151.06</ele>
        <time>2020-01-15T16:04:50Z</time>
      </trkpt>
      <trkpt lat="49.63848" lon="4.97864">
        <ele>152.51</ele>
        <time>2020-01-15T16:05:15Z</time>
      </trkpt>
      <trkpt lat="49.63837" lon="4.97857">
        <ele>152.51</ele>
        <time>2020-01-15T16:05:29Z</time>
      </trkpt>
      <trkpt lat="49.63818" lon="4.9784">
        <ele>154.43</ele>
        <time>2020-01-15T16:05:46Z</time>
      </trkpt>
      <trkpt lat="49.63803" lon="4.97823">
        <ele>158.27</ele>
        <time>2020-01-15T16:06:02Z</time>
      </trkpt>
      <trkpt lat="49.63793" lon="4.97816">
        <ele>159.72</ele>
        <time>2020-01-15T16:06:16Z</time>
      </trkpt>
      <trkpt lat="49.63777" lon="4.97799">
        <ele>162.6</ele>
        <time>2020-01-15T16:06:33Z</time>
      </trkpt>
      <trkpt lat="49.63765" lon="4.97785">
        <ele>164.04</ele>
        <time>2020-01-15T16:06:48Z</time>
      </trkpt>
      <trkpt lat="49.63764" lon="4.97782">
        <ele>163.56</ele>
        <time>2020-01-15T16:07:05Z</time>
      </trkpt>
      <trkpt lat="49.63763" lon="4.97782">
        <ele>163.08</ele>
        <time>2020-01-15T16:07:21Z</time>
      </trkpt>
      <trkpt lat="49.63762" lon="4.9778">
        <ele>164.52</ele>
        <time>2020-01-15T16:07:40Z</time>
      </trkpt>
      <trkpt lat="49.63755" lon="4.97775">
        <ele>165</ele>
        <time>2020-01-15T16:07:58Z</time>
      </trkpt>
      <trkpt lat="49.63746" lon="4.97768">
        <ele>164.52</ele>
        <time>2020-01-15T16:08:13Z</time>
      </trkpt>
      <trkpt lat="49.63731" lon="4.9776">
        <ele>159.72</ele>
        <time>2020-01-15T16:08:31Z</time>
      </trkpt>
      <trkpt lat="49.63728" lon="4.97755">
        <ele>161.16</ele>
        <time>2020-01-15T16:08:46Z</time>
      </trkpt>
      <trkpt lat="49.63728" lon="4.97754">
        <ele>161.16</ele>
        <time>2020-01-15T16:09:06Z</time>
      </trkpt>
      <trkpt lat="49.63722" lon="4.97751">
        <ele>161.16</ele>
        <time>2020-01-15T16:09:22Z</time>
      </trkpt>
      <trkpt lat="49.63711" lon="4.97741">
        <ele>161.64</ele>
        <time>2020-01-15T16:09:40Z</time>
      </trkpt>
      <trkpt lat="49.63703" lon="4.97735">
        <ele>162.12</ele>
        <time>2020-01-15T16:09:54Z</time>
      </trkpt>
      <trkpt lat="49.637" lon="4.97731">
        <ele>162.12</ele>
        <time>2020-01-15T16:10:07Z</time>
      </trkpt>
      <trkpt lat="49.63696" lon="4.97729">
        <ele>162.12</ele>
        <time>2020-01-15T16:10:22Z</time>
      </trkpt>
      <trkpt lat="49.63691" lon="4.97727">
        <ele>161.64</ele>
        <time>2020-01-15T16:10:35Z</time>
      </trkpt>
      <trkpt lat="49.63687" lon="4.97723">
        <ele>161.64</ele>
        <time>2020-01-15T16:10:57Z</time>
      </trkpt>
      <trkpt lat="49.63676" lon="4.97715">
        <ele>160.68</ele>
        <time>2020-01-15T16:11:12Z</time>
      </trkpt>
      <trkpt lat="49.63656" lon="4.97697">
        <ele>160.2</ele>
        <time>2020-01-15T16:11:34Z</time>
      </trkpt>
      <trkpt lat="49.63637" lon="4.97681">
        <ele>160.2</ele>
        <time>2020-01-15T16:11:55Z</time>
      </trkpt>
      <trkpt lat="49.63634" lon="4.97679">
        <ele>160.68</ele>
        <time>2020-01-15T16:11:58Z</time>
      </trkpt>
      <trkpt lat="49.63619" lon="4.97662">
        <ele>160.68</ele>
        <time>2020-01-15T16:12:16Z</time>
      </trkpt>
      <trkpt lat="49.63611" lon="4.9766">
        <ele>160.68</ele>
        <time>2020-01-15T16:12:33Z</time>
      </trkpt>
      <trkpt lat="49.63609" lon="4.9766">
        <ele>162.12</ele>
        <time>2020-01-15T16:12:46Z</time>
      </trkpt>
      <trkpt lat="49.63607" lon="4.97665">
        <ele>163.08</ele>
        <time>2020-01-15T16:12:59Z</time>
      </trkpt>
      <trkpt lat="49.63595" lon="4.97673">
        <ele>162.6</ele>
        <time>2020-01-15T16:13:15Z</time>
      </trkpt>
      <trkpt lat="49.63588" lon="4.97682">
        <ele>164.04</ele>
        <time>2020-01-15T16:13:29Z</time>
      </trkpt>
      <trkpt lat="49.63572" lon="4.97703">
        <ele>165.96</ele>
        <time>2020-01-15T16:13:46Z</time>
      </trkpt>
      <trkpt lat="49.63559" lon="4.97723">
        <ele>168.85</ele>
        <time>2020-01-15T16:14:02Z</time>
      </trkpt>
      <trkpt lat="49.63546" lon="4.97747">
        <ele>172.21</ele>
        <time>2020-01-15T16:14:18Z</time>
      </trkpt>
      <trkpt lat="49.63539" lon="4.97767">
        <ele>172.21</ele>
        <time>2020-01-15T16:14:33Z</time>
      </trkpt>
      <trkpt lat="49.63531" lon="4.97783">
        <ele>171.73</ele>
        <time>2020-01-15T16:14:48Z</time>
      </trkpt>
      <trkpt lat="49.63522" lon="4.97792">
        <ele>171.25</ele>
        <time>2020-01-15T16:15:04Z</time>
      </trkpt>
      <trkpt lat="49.63505" lon="4.97809">
        <ele>174.14</ele>
        <time>2020-01-15T16:15:22Z</time>
      </trkpt>
      <trkpt lat="49.63506" lon="4.97816">
        <ele>172.21</ele>
        <time>2020-01-15T16:15:36Z</time>
      </trkpt>
      <trkpt lat="49.63505" lon="4.97819">
        <ele>171.73</ele>
        <time>2020-01-15T16:15:52Z</time>
      </trkpt>
      <trkpt lat="49.63493" lon="4.97831">
        <ele>169.81</ele>
        <time>2020-01-15T16:16:06Z</time>
      </trkpt>
      <trkpt lat="49.63482" lon="4.9785">
        <ele>171.25</ele>
        <time>2020-01-15T16:16:21Z</time>
      </trkpt>
      <trkpt lat="49.63476" lon="4.97859">
        <ele>173.66</ele>
        <time>2020-01-15T16:16:35Z</time>
      </trkpt>
      <trkpt lat="49.63459" lon="4.97878">
        <ele>175.1</ele>
        <time>2020-01-15T16:16:52Z</time>
      </trkpt>
      <trkpt lat="49.63446" lon="4.97892">
        <ele>173.17</ele>
        <time>2020-01-15T16:17:07Z</time>
      </trkpt>
      <trkpt lat="49.63429" lon="4.97901">
        <ele>171.73</ele>
        <time>2020-01-15T16:17:22Z</time>
      </trkpt>
      <trkpt lat="49.63418" lon="4.97907">
        <ele>173.66</ele>
        <time>2020-01-15T16:17:33Z</time>
      </trkpt>
      <trkpt lat="49.63401" lon="4.97921">
        <ele>174.62</ele>
        <time>2020-01-15T16:17:52Z</time>
      </trkpt>
      <trkpt lat="49.63388" lon="4.97937">
        <ele>176.06</ele>
        <time>2020-01-15T16:18:10Z</time>
      </trkpt>
      <trkpt lat="49.6339" lon="4.97947">
        <ele>175.1</ele>
        <time>2020-01-15T16:18:19Z</time>
      </trkpt>
      <trkpt lat="49.63394" lon="4.97966">
        <ele>175.1</ele>
        <time>2020-01-15T16:18:33Z</time>
      </trkpt>
      <trkpt lat="49.63395" lon="4.97976">
        <ele>174.62</ele>
        <time>2020-01-15T16:18:47Z</time>
      </trkpt>
      <trkpt lat="49.63402" lon="4.97996">
        <ele>176.54</ele>
        <time>2020-01-15T16:19:01Z</time>
      </trkpt>
      <trkpt lat="49.63407" lon="4.98006">
        <ele>177.98</ele>
        <time>2020-01-15T16:19:08Z</time>
      </trkpt>
      <trkpt lat="49.63412" lon="4.98014">
        <ele>179.9</ele>
        <time>2020-01-15T16:19:25Z</time>
      </trkpt>
      <trkpt lat="49.63413" lon="4.98017">
        <ele>180.38</ele>
        <time>2020-01-15T16:19:27Z</time>
      </trkpt>
      <trkpt lat="49.63427" lon="4.98046">
        <ele>180.38</ele>
        <time>2020-01-15T16:19:45Z</time>
      </trkpt>
      <trkpt lat="49.63442" lon="4.98047">
        <ele>184.71</ele>
        <time>2020-01-15T16:20:01Z</time>
      </trkpt>
      <trkpt lat="49.63448" lon="4.98047">
        <ele>182.31</ele>
        <time>2020-01-15T16:20:13Z</time>
      </trkpt>
      <trkpt lat="49.6345" lon="4.98047">
        <ele>183.27</ele>
        <time>2020-01-15T16:20:30Z</time>
      </trkpt>
      <trkpt lat="49.63451" lon="4.98047">
        <ele>182.31</ele>
        <time>2020-01-15T16:20:39Z</time>
      </trkpt>
      <trkpt lat="49.63485" lon="4.98008">
        <ele>186.15</ele>
        <time>2020-01-15T16:48:58Z</time>
      </trkpt>
      <trkpt lat="49.63469" lon="4.98036">
        <ele>186.63</ele>
        <time>2020-01-15T16:49:25Z</time>
      </trkpt>
    </trkseg>
  </trk>
</gpx>